<?xml version="1.0" encoding="UTF-8" standalone="no" ?>
<gpx xmlns="http://www.topografix.com/GPX/1/1" xmlns:xsi="http://www.w3.org/2001/XMLSchema-instance" xsi:schemaLocation="http://www.topografix.com/GPX/1/1 http://www.topografix.com/GPX/1/1/gpx.xsd" version="1.1" creator="VisuGPX - https://www.visugpx.com">
  <metadata>
    <name>Circuit du Sapt</name>
  </metadata>
  <trk>
    <name><![CDATA[2580715-Circuit du Sapt]]></name>
    <trkseg>
      <trkpt lat="45.32842" lon="4.42586">
        <ele>935</ele>
        <time>2020-07-01T19:40:36Z</time>
      </trkpt>
      <trkpt lat="45.32835" lon="4.42579">
        <ele>935</ele>
        <time>2020-07-01T19:40:38Z</time>
      </trkpt>
      <trkpt lat="45.32834" lon="4.42574">
        <ele>934</ele>
        <time>2020-07-01T19:40:39Z</time>
      </trkpt>
      <trkpt lat="45.32832" lon="4.42574">
        <ele>934</ele>
        <time>2020-07-01T19:40:39Z</time>
      </trkpt>
      <trkpt lat="45.32815" lon="4.42578">
        <ele>936</ele>
        <time>2020-07-01T19:40:43Z</time>
      </trkpt>
      <trkpt lat="45.32785" lon="4.42598">
        <ele>940</ele>
        <time>2020-07-01T19:40:51Z</time>
      </trkpt>
      <trkpt lat="45.3275" lon="4.42596">
        <ele>942</ele>
        <time>2020-07-01T19:40:59Z</time>
      </trkpt>
      <trkpt lat="45.32679" lon="4.42555">
        <ele>943</ele>
        <time>2020-07-01T19:41:17Z</time>
      </trkpt>
      <trkpt lat="45.32637" lon="4.42564">
        <ele>943</ele>
        <time>2020-07-01T19:41:27Z</time>
      </trkpt>
      <trkpt lat="45.32599" lon="4.42604">
        <ele>945</ele>
        <time>2020-07-01T19:41:38Z</time>
      </trkpt>
      <trkpt lat="45.3257" lon="4.42652">
        <ele>948</ele>
        <time>2020-07-01T19:41:49Z</time>
      </trkpt>
      <trkpt lat="45.32533" lon="4.42688">
        <ele>950</ele>
        <time>2020-07-01T19:41:59Z</time>
      </trkpt>
      <trkpt lat="45.32528" lon="4.4269">
        <ele>950</ele>
        <time>2020-07-01T19:42:00Z</time>
      </trkpt>
      <trkpt lat="45.32527" lon="4.42697">
        <ele>951</ele>
        <time>2020-07-01T19:42:01Z</time>
      </trkpt>
      <trkpt lat="45.32549" lon="4.4272">
        <ele>956</ele>
        <time>2020-07-01T19:42:08Z</time>
      </trkpt>
      <trkpt lat="45.32617" lon="4.4275">
        <ele>961</ele>
        <time>2020-07-01T19:42:24Z</time>
      </trkpt>
      <trkpt lat="45.32641" lon="4.42763">
        <ele>963</ele>
        <time>2020-07-01T19:42:30Z</time>
      </trkpt>
      <trkpt lat="45.3267" lon="4.42794">
        <ele>967</ele>
        <time>2020-07-01T19:42:39Z</time>
      </trkpt>
      <trkpt lat="45.32692" lon="4.42835">
        <ele>972</ele>
        <time>2020-07-01T19:42:47Z</time>
      </trkpt>
      <trkpt lat="45.32715" lon="4.42865">
        <ele>974</ele>
        <time>2020-07-01T19:42:55Z</time>
      </trkpt>
      <trkpt lat="45.32732" lon="4.42912">
        <ele>974</ele>
        <time>2020-07-01T19:43:03Z</time>
      </trkpt>
      <trkpt lat="45.32754" lon="4.42942">
        <ele>973</ele>
        <time>2020-07-01T19:43:10Z</time>
      </trkpt>
      <trkpt lat="45.32811" lon="4.42995">
        <ele>971</ele>
        <time>2020-07-01T19:43:26Z</time>
      </trkpt>
      <trkpt lat="45.32823" lon="4.43003">
        <ele>971</ele>
        <time>2020-07-01T19:43:29Z</time>
      </trkpt>
      <trkpt lat="45.32871" lon="4.43017">
        <ele>971</ele>
        <time>2020-07-01T19:43:41Z</time>
      </trkpt>
      <trkpt lat="45.32881" lon="4.43023">
        <ele>971</ele>
        <time>2020-07-01T19:43:43Z</time>
      </trkpt>
      <trkpt lat="45.32889" lon="4.43032">
        <ele>971</ele>
        <time>2020-07-01T19:43:46Z</time>
      </trkpt>
      <trkpt lat="45.32928" lon="4.43088">
        <ele>974</ele>
        <time>2020-07-01T19:43:59Z</time>
      </trkpt>
      <trkpt lat="45.32966" lon="4.43153">
        <ele>974</ele>
        <time>2020-07-01T19:44:13Z</time>
      </trkpt>
      <trkpt lat="45.32987" lon="4.43219">
        <ele>973</ele>
        <time>2020-07-01T19:44:24Z</time>
      </trkpt>
      <trkpt lat="45.33" lon="4.43249">
        <ele>971</ele>
        <time>2020-07-01T19:44:30Z</time>
      </trkpt>
      <trkpt lat="45.33012" lon="4.4329">
        <ele>967</ele>
        <time>2020-07-01T19:44:38Z</time>
      </trkpt>
      <trkpt lat="45.33017" lon="4.43354">
        <ele>963</ele>
        <time>2020-07-01T19:44:48Z</time>
      </trkpt>
      <trkpt lat="45.33023" lon="4.43372">
        <ele>962</ele>
        <time>2020-07-01T19:44:51Z</time>
      </trkpt>
      <trkpt lat="45.33028" lon="4.43378">
        <ele>961</ele>
        <time>2020-07-01T19:44:53Z</time>
      </trkpt>
      <trkpt lat="45.3304" lon="4.43384">
        <ele>960</ele>
        <time>2020-07-01T19:44:56Z</time>
      </trkpt>
      <trkpt lat="45.33074" lon="4.43379">
        <ele>957</ele>
        <time>2020-07-01T19:45:04Z</time>
      </trkpt>
      <trkpt lat="45.33102" lon="4.43387">
        <ele>955</ele>
        <time>2020-07-01T19:45:11Z</time>
      </trkpt>
      <trkpt lat="45.33141" lon="4.43403">
        <ele>952</ele>
        <time>2020-07-01T19:45:20Z</time>
      </trkpt>
      <trkpt lat="45.33202" lon="4.43445">
        <ele>947</ele>
        <time>2020-07-01T19:45:36Z</time>
      </trkpt>
      <trkpt lat="45.33248" lon="4.43525">
        <ele>943</ele>
        <time>2020-07-01T19:45:53Z</time>
      </trkpt>
      <trkpt lat="45.33256" lon="4.43548">
        <ele>942</ele>
        <time>2020-07-01T19:45:57Z</time>
      </trkpt>
      <trkpt lat="45.3326" lon="4.43603">
        <ele>944</ele>
        <time>2020-07-01T19:46:06Z</time>
      </trkpt>
      <trkpt lat="45.33265" lon="4.43621">
        <ele>944</ele>
        <time>2020-07-01T19:46:09Z</time>
      </trkpt>
      <trkpt lat="45.33277" lon="4.43644">
        <ele>944</ele>
        <time>2020-07-01T19:46:14Z</time>
      </trkpt>
      <trkpt lat="45.33282" lon="4.43691">
        <ele>944</ele>
        <time>2020-07-01T19:46:22Z</time>
      </trkpt>
      <trkpt lat="45.33291" lon="4.43705">
        <ele>943</ele>
        <time>2020-07-01T19:46:25Z</time>
      </trkpt>
      <trkpt lat="45.33328" lon="4.43741">
        <ele>941</ele>
        <time>2020-07-01T19:46:35Z</time>
      </trkpt>
      <trkpt lat="45.33334" lon="4.43775">
        <ele>941</ele>
        <time>2020-07-01T19:46:41Z</time>
      </trkpt>
      <trkpt lat="45.33329" lon="4.43794">
        <ele>941</ele>
        <time>2020-07-01T19:46:44Z</time>
      </trkpt>
      <trkpt lat="45.33314" lon="4.43822">
        <ele>940</ele>
        <time>2020-07-01T19:46:50Z</time>
      </trkpt>
      <trkpt lat="45.33315" lon="4.43824">
        <ele>940</ele>
        <time>2020-07-01T19:46:51Z</time>
      </trkpt>
      <trkpt lat="45.33326" lon="4.43798">
        <ele>941</ele>
        <time>2020-07-01T19:46:56Z</time>
      </trkpt>
      <trkpt lat="45.33322" lon="4.43801">
        <ele>941</ele>
        <time>2020-07-01T19:46:57Z</time>
      </trkpt>
      <trkpt lat="45.33317" lon="4.43812">
        <ele>940</ele>
        <time>2020-07-01T19:46:59Z</time>
      </trkpt>
      <trkpt lat="45.3328" lon="4.43857">
        <ele>942</ele>
        <time>2020-07-01T19:47:10Z</time>
      </trkpt>
      <trkpt lat="45.33246" lon="4.4389">
        <ele>945</ele>
        <time>2020-07-01T19:47:20Z</time>
      </trkpt>
      <trkpt lat="45.33223" lon="4.43992">
        <ele>951</ele>
        <time>2020-07-01T19:47:37Z</time>
      </trkpt>
      <trkpt lat="45.33192" lon="4.441">
        <ele>958</ele>
        <time>2020-07-01T19:47:57Z</time>
      </trkpt>
      <trkpt lat="45.33165" lon="4.44139">
        <ele>964</ele>
        <time>2020-07-01T19:48:06Z</time>
      </trkpt>
      <trkpt lat="45.33135" lon="4.44174">
        <ele>967</ele>
        <time>2020-07-01T19:48:15Z</time>
      </trkpt>
      <trkpt lat="45.33112" lon="4.44215">
        <ele>970</ele>
        <time>2020-07-01T19:48:23Z</time>
      </trkpt>
      <trkpt lat="45.33101" lon="4.44269">
        <ele>972</ele>
        <time>2020-07-01T19:48:32Z</time>
      </trkpt>
      <trkpt lat="45.33078" lon="4.44338">
        <ele>974</ele>
        <time>2020-07-01T19:48:45Z</time>
      </trkpt>
      <trkpt lat="45.32871" lon="4.44592">
        <ele>991</ele>
        <time>2020-07-01T19:49:49Z</time>
      </trkpt>
      <trkpt lat="45.328" lon="4.44691">
        <ele>998</ele>
        <time>2020-07-01T19:50:12Z</time>
      </trkpt>
      <trkpt lat="45.32741" lon="4.44755">
        <ele>1006</ele>
        <time>2020-07-01T19:50:29Z</time>
      </trkpt>
      <trkpt lat="45.32714" lon="4.44851">
        <ele>1010</ele>
        <time>2020-07-01T19:50:46Z</time>
      </trkpt>
      <trkpt lat="45.32683" lon="4.44901">
        <ele>1014</ele>
        <time>2020-07-01T19:50:57Z</time>
      </trkpt>
      <trkpt lat="45.32655" lon="4.44955">
        <ele>1015</ele>
        <time>2020-07-01T19:51:08Z</time>
      </trkpt>
      <trkpt lat="45.32626" lon="4.45029">
        <ele>1019</ele>
        <time>2020-07-01T19:51:22Z</time>
      </trkpt>
      <trkpt lat="45.32589" lon="4.4507">
        <ele>1023</ele>
        <time>2020-07-01T19:51:33Z</time>
      </trkpt>
      <trkpt lat="45.32601" lon="4.45113">
        <ele>1024</ele>
        <time>2020-07-01T19:51:41Z</time>
      </trkpt>
      <trkpt lat="45.32707" lon="4.45272">
        <ele>1035</ele>
        <time>2020-07-01T19:52:17Z</time>
      </trkpt>
      <trkpt lat="45.32717" lon="4.45311">
        <ele>1038</ele>
        <time>2020-07-01T19:52:24Z</time>
      </trkpt>
      <trkpt lat="45.32742" lon="4.45348">
        <ele>1040</ele>
        <time>2020-07-01T19:52:32Z</time>
      </trkpt>
      <trkpt lat="45.32764" lon="4.45396">
        <ele>1044</ele>
        <time>2020-07-01T19:52:41Z</time>
      </trkpt>
      <trkpt lat="45.328" lon="4.45443">
        <ele>1046</ele>
        <time>2020-07-01T19:52:53Z</time>
      </trkpt>
      <trkpt lat="45.32818" lon="4.45483">
        <ele>1047</ele>
        <time>2020-07-01T19:53:01Z</time>
      </trkpt>
      <trkpt lat="45.3286" lon="4.45539">
        <ele>1044</ele>
        <time>2020-07-01T19:53:14Z</time>
      </trkpt>
      <trkpt lat="45.32899" lon="4.45586">
        <ele>1041</ele>
        <time>2020-07-01T19:53:26Z</time>
      </trkpt>
      <trkpt lat="45.32931" lon="4.45594">
        <ele>1037</ele>
        <time>2020-07-01T19:53:34Z</time>
      </trkpt>
      <trkpt lat="45.32943" lon="4.45607">
        <ele>1035</ele>
        <time>2020-07-01T19:53:37Z</time>
      </trkpt>
      <trkpt lat="45.32995" lon="4.45722">
        <ele>1033</ele>
        <time>2020-07-01T19:54:00Z</time>
      </trkpt>
      <trkpt lat="45.33011" lon="4.45765">
        <ele>1033</ele>
        <time>2020-07-01T19:54:08Z</time>
      </trkpt>
      <trkpt lat="45.33013" lon="4.45781">
        <ele>1032</ele>
        <time>2020-07-01T19:54:10Z</time>
      </trkpt>
      <trkpt lat="45.3301" lon="4.45913">
        <ele>1028</ele>
        <time>2020-07-01T19:54:32Z</time>
      </trkpt>
      <trkpt lat="45.33016" lon="4.45999">
        <ele>1023</ele>
        <time>2020-07-01T19:54:46Z</time>
      </trkpt>
      <trkpt lat="45.33009" lon="4.4604">
        <ele>1022</ele>
        <time>2020-07-01T19:54:53Z</time>
      </trkpt>
      <trkpt lat="45.32999" lon="4.46075">
        <ele>1022</ele>
        <time>2020-07-01T19:54:59Z</time>
      </trkpt>
      <trkpt lat="45.32999" lon="4.4609">
        <ele>1022</ele>
        <time>2020-07-01T19:55:02Z</time>
      </trkpt>
      <trkpt lat="45.33003" lon="4.46098">
        <ele>1022</ele>
        <time>2020-07-01T19:55:03Z</time>
      </trkpt>
      <trkpt lat="45.33004" lon="4.46136">
        <ele>1026</ele>
        <time>2020-07-01T19:55:09Z</time>
      </trkpt>
      <trkpt lat="45.33" lon="4.46166">
        <ele>1029</ele>
        <time>2020-07-01T19:55:15Z</time>
      </trkpt>
      <trkpt lat="45.33002" lon="4.46169">
        <ele>1029</ele>
        <time>2020-07-01T19:55:15Z</time>
      </trkpt>
      <trkpt lat="45.33013" lon="4.46171">
        <ele>1030</ele>
        <time>2020-07-01T19:55:18Z</time>
      </trkpt>
      <trkpt lat="45.33042" lon="4.46174">
        <ele>1033</ele>
        <time>2020-07-01T19:55:25Z</time>
      </trkpt>
      <trkpt lat="45.33073" lon="4.46173">
        <ele>1034</ele>
        <time>2020-07-01T19:55:32Z</time>
      </trkpt>
      <trkpt lat="45.33086" lon="4.46177">
        <ele>1036</ele>
        <time>2020-07-01T19:55:35Z</time>
      </trkpt>
      <trkpt lat="45.3311" lon="4.46197">
        <ele>1041</ele>
        <time>2020-07-01T19:55:41Z</time>
      </trkpt>
      <trkpt lat="45.33137" lon="4.46227">
        <ele>1048</ele>
        <time>2020-07-01T19:55:49Z</time>
      </trkpt>
      <trkpt lat="45.33168" lon="4.46248">
        <ele>1052</ele>
        <time>2020-07-01T19:55:57Z</time>
      </trkpt>
      <trkpt lat="45.33208" lon="4.46271">
        <ele>1053</ele>
        <time>2020-07-01T19:56:08Z</time>
      </trkpt>
      <trkpt lat="45.33235" lon="4.46344">
        <ele>1058</ele>
        <time>2020-07-01T19:56:21Z</time>
      </trkpt>
      <trkpt lat="45.33243" lon="4.46385">
        <ele>1062</ele>
        <time>2020-07-01T19:56:28Z</time>
      </trkpt>
      <trkpt lat="45.33289" lon="4.46476">
        <ele>1066</ele>
        <time>2020-07-01T19:56:46Z</time>
      </trkpt>
      <trkpt lat="45.33304" lon="4.46498">
        <ele>1068</ele>
        <time>2020-07-01T19:56:51Z</time>
      </trkpt>
      <trkpt lat="45.33324" lon="4.46521">
        <ele>1069</ele>
        <time>2020-07-01T19:56:57Z</time>
      </trkpt>
      <trkpt lat="45.3333" lon="4.46535">
        <ele>1070</ele>
        <time>2020-07-01T19:57:00Z</time>
      </trkpt>
      <trkpt lat="45.33367" lon="4.46588">
        <ele>1072</ele>
        <time>2020-07-01T19:57:12Z</time>
      </trkpt>
      <trkpt lat="45.33388" lon="4.46606">
        <ele>1073</ele>
        <time>2020-07-01T19:57:18Z</time>
      </trkpt>
      <trkpt lat="45.3342" lon="4.46617">
        <ele>1073</ele>
        <time>2020-07-01T19:57:26Z</time>
      </trkpt>
      <trkpt lat="45.33447" lon="4.46638">
        <ele>1076</ele>
        <time>2020-07-01T19:57:33Z</time>
      </trkpt>
      <trkpt lat="45.33472" lon="4.46682">
        <ele>1083</ele>
        <time>2020-07-01T19:57:42Z</time>
      </trkpt>
      <trkpt lat="45.33479" lon="4.46702">
        <ele>1086</ele>
        <time>2020-07-01T19:57:46Z</time>
      </trkpt>
      <trkpt lat="45.33502" lon="4.46739">
        <ele>1091</ele>
        <time>2020-07-01T19:57:54Z</time>
      </trkpt>
      <trkpt lat="45.33508" lon="4.46772">
        <ele>1097</ele>
        <time>2020-07-01T19:58:00Z</time>
      </trkpt>
      <trkpt lat="45.33521" lon="4.4678">
        <ele>1099</ele>
        <time>2020-07-01T19:58:03Z</time>
      </trkpt>
      <trkpt lat="45.33577" lon="4.46783">
        <ele>1102</ele>
        <time>2020-07-01T19:58:16Z</time>
      </trkpt>
      <trkpt lat="45.33602" lon="4.46778">
        <ele>1103</ele>
        <time>2020-07-01T19:58:22Z</time>
      </trkpt>
      <trkpt lat="45.33626" lon="4.46758">
        <ele>1102</ele>
        <time>2020-07-01T19:58:28Z</time>
      </trkpt>
      <trkpt lat="45.33711" lon="4.46649">
        <ele>1093</ele>
        <time>2020-07-01T19:58:55Z</time>
      </trkpt>
      <trkpt lat="45.3374" lon="4.46603">
        <ele>1087</ele>
        <time>2020-07-01T19:59:05Z</time>
      </trkpt>
      <trkpt lat="45.33761" lon="4.46577">
        <ele>1083</ele>
        <time>2020-07-01T19:59:12Z</time>
      </trkpt>
      <trkpt lat="45.33779" lon="4.46566">
        <ele>1080</ele>
        <time>2020-07-01T19:59:16Z</time>
      </trkpt>
      <trkpt lat="45.33799" lon="4.46558">
        <ele>1078</ele>
        <time>2020-07-01T19:59:21Z</time>
      </trkpt>
      <trkpt lat="45.33809" lon="4.46549">
        <ele>1077</ele>
        <time>2020-07-01T19:59:24Z</time>
      </trkpt>
      <trkpt lat="45.3382" lon="4.46534">
        <ele>1074</ele>
        <time>2020-07-01T19:59:28Z</time>
      </trkpt>
      <trkpt lat="45.33833" lon="4.46498">
        <ele>1068</ele>
        <time>2020-07-01T19:59:34Z</time>
      </trkpt>
      <trkpt lat="45.33842" lon="4.46496">
        <ele>1067</ele>
        <time>2020-07-01T19:59:36Z</time>
      </trkpt>
      <trkpt lat="45.33854" lon="4.46497">
        <ele>1066</ele>
        <time>2020-07-01T19:59:39Z</time>
      </trkpt>
      <trkpt lat="45.33891" lon="4.4653">
        <ele>1067</ele>
        <time>2020-07-01T19:59:49Z</time>
      </trkpt>
      <trkpt lat="45.33942" lon="4.46602">
        <ele>1070</ele>
        <time>2020-07-01T20:00:06Z</time>
      </trkpt>
      <trkpt lat="45.33957" lon="4.46641">
        <ele>1073</ele>
        <time>2020-07-01T20:00:13Z</time>
      </trkpt>
      <trkpt lat="45.33956" lon="4.46658">
        <ele>1074</ele>
        <time>2020-07-01T20:00:16Z</time>
      </trkpt>
      <trkpt lat="45.33965" lon="4.46708">
        <ele>1079</ele>
        <time>2020-07-01T20:00:25Z</time>
      </trkpt>
      <trkpt lat="45.33969" lon="4.46749">
        <ele>1084</ele>
        <time>2020-07-01T20:00:32Z</time>
      </trkpt>
      <trkpt lat="45.33977" lon="4.46787">
        <ele>1086</ele>
        <time>2020-07-01T20:00:38Z</time>
      </trkpt>
      <trkpt lat="45.33985" lon="4.4685">
        <ele>1090</ele>
        <time>2020-07-01T20:00:49Z</time>
      </trkpt>
      <trkpt lat="45.34001" lon="4.46908">
        <ele>1090</ele>
        <time>2020-07-01T20:00:59Z</time>
      </trkpt>
      <trkpt lat="45.34005" lon="4.46938">
        <ele>1091</ele>
        <time>2020-07-01T20:01:04Z</time>
      </trkpt>
      <trkpt lat="45.34006" lon="4.46974">
        <ele>1093</ele>
        <time>2020-07-01T20:01:10Z</time>
      </trkpt>
      <trkpt lat="45.34015" lon="4.47028">
        <ele>1092</ele>
        <time>2020-07-01T20:01:19Z</time>
      </trkpt>
      <trkpt lat="45.34049" lon="4.47177">
        <ele>1089</ele>
        <time>2020-07-01T20:01:45Z</time>
      </trkpt>
      <trkpt lat="45.34132" lon="4.47335">
        <ele>1087</ele>
        <time>2020-07-01T20:02:17Z</time>
      </trkpt>
      <trkpt lat="45.34141" lon="4.47355">
        <ele>1086</ele>
        <time>2020-07-01T20:02:21Z</time>
      </trkpt>
      <trkpt lat="45.3415" lon="4.47388">
        <ele>1085</ele>
        <time>2020-07-01T20:02:27Z</time>
      </trkpt>
      <trkpt lat="45.34161" lon="4.4748">
        <ele>1087</ele>
        <time>2020-07-01T20:02:42Z</time>
      </trkpt>
      <trkpt lat="45.34161" lon="4.47498">
        <ele>1088</ele>
        <time>2020-07-01T20:02:45Z</time>
      </trkpt>
      <trkpt lat="45.3415" lon="4.4755">
        <ele>1094</ele>
        <time>2020-07-01T20:02:54Z</time>
      </trkpt>
      <trkpt lat="45.3413" lon="4.47609">
        <ele>1102</ele>
        <time>2020-07-01T20:03:05Z</time>
      </trkpt>
      <trkpt lat="45.34129" lon="4.47619">
        <ele>1103</ele>
        <time>2020-07-01T20:03:06Z</time>
      </trkpt>
      <trkpt lat="45.34132" lon="4.47624">
        <ele>1103</ele>
        <time>2020-07-01T20:03:07Z</time>
      </trkpt>
      <trkpt lat="45.34147" lon="4.47626">
        <ele>1099</ele>
        <time>2020-07-01T20:03:11Z</time>
      </trkpt>
      <trkpt lat="45.3418" lon="4.47642">
        <ele>1095</ele>
        <time>2020-07-01T20:03:19Z</time>
      </trkpt>
      <trkpt lat="45.34225" lon="4.47674">
        <ele>1095</ele>
        <time>2020-07-01T20:03:31Z</time>
      </trkpt>
      <trkpt lat="45.34242" lon="4.47691">
        <ele>1096</ele>
        <time>2020-07-01T20:03:36Z</time>
      </trkpt>
      <trkpt lat="45.34248" lon="4.47701">
        <ele>1098</ele>
        <time>2020-07-01T20:03:38Z</time>
      </trkpt>
      <trkpt lat="45.34336" lon="4.47801">
        <ele>1108</ele>
        <time>2020-07-01T20:04:04Z</time>
      </trkpt>
      <trkpt lat="45.34371" lon="4.4786">
        <ele>1108</ele>
        <time>2020-07-01T20:04:17Z</time>
      </trkpt>
      <trkpt lat="45.34393" lon="4.47872">
        <ele>1105</ele>
        <time>2020-07-01T20:04:22Z</time>
      </trkpt>
      <trkpt lat="45.34422" lon="4.47915">
        <ele>1103</ele>
        <time>2020-07-01T20:04:32Z</time>
      </trkpt>
      <trkpt lat="45.34438" lon="4.47926">
        <ele>1101</ele>
        <time>2020-07-01T20:04:36Z</time>
      </trkpt>
      <trkpt lat="45.34453" lon="4.47942">
        <ele>1099</ele>
        <time>2020-07-01T20:04:40Z</time>
      </trkpt>
      <trkpt lat="45.34474" lon="4.47969">
        <ele>1098</ele>
        <time>2020-07-01T20:04:47Z</time>
      </trkpt>
      <trkpt lat="45.3448" lon="4.47984">
        <ele>1098</ele>
        <time>2020-07-01T20:04:50Z</time>
      </trkpt>
      <trkpt lat="45.34494" lon="4.47997">
        <ele>1097</ele>
        <time>2020-07-01T20:04:54Z</time>
      </trkpt>
      <trkpt lat="45.34506" lon="4.48017">
        <ele>1095</ele>
        <time>2020-07-01T20:04:58Z</time>
      </trkpt>
      <trkpt lat="45.34504" lon="4.48065">
        <ele>1095</ele>
        <time>2020-07-01T20:05:06Z</time>
      </trkpt>
      <trkpt lat="45.34511" lon="4.48095">
        <ele>1094</ele>
        <time>2020-07-01T20:05:11Z</time>
      </trkpt>
      <trkpt lat="45.34526" lon="4.48129">
        <ele>1092</ele>
        <time>2020-07-01T20:05:18Z</time>
      </trkpt>
      <trkpt lat="45.34532" lon="4.48139">
        <ele>1092</ele>
        <time>2020-07-01T20:05:20Z</time>
      </trkpt>
      <trkpt lat="45.34563" lon="4.48158">
        <ele>1089</ele>
        <time>2020-07-01T20:05:28Z</time>
      </trkpt>
      <trkpt lat="45.34568" lon="4.4816">
        <ele>1088</ele>
        <time>2020-07-01T20:05:29Z</time>
      </trkpt>
      <trkpt lat="45.34594" lon="4.48152">
        <ele>1087</ele>
        <time>2020-07-01T20:05:35Z</time>
      </trkpt>
      <trkpt lat="45.34646" lon="4.4818">
        <ele>1089</ele>
        <time>2020-07-01T20:05:48Z</time>
      </trkpt>
      <trkpt lat="45.34671" lon="4.48183">
        <ele>1090</ele>
        <time>2020-07-01T20:05:54Z</time>
      </trkpt>
      <trkpt lat="45.3475" lon="4.48172">
        <ele>1088</ele>
        <time>2020-07-01T20:06:13Z</time>
      </trkpt>
      <trkpt lat="45.34763" lon="4.48164">
        <ele>1086</ele>
        <time>2020-07-01T20:06:16Z</time>
      </trkpt>
      <trkpt lat="45.34867" lon="4.48081">
        <ele>1073</ele>
        <time>2020-07-01T20:06:44Z</time>
      </trkpt>
      <trkpt lat="45.34914" lon="4.48029">
        <ele>1072</ele>
        <time>2020-07-01T20:06:58Z</time>
      </trkpt>
      <trkpt lat="45.34918" lon="4.48029">
        <ele>1072</ele>
        <time>2020-07-01T20:06:59Z</time>
      </trkpt>
      <trkpt lat="45.34924" lon="4.48034">
        <ele>1072</ele>
        <time>2020-07-01T20:07:00Z</time>
      </trkpt>
      <trkpt lat="45.3493" lon="4.48047">
        <ele>1073</ele>
        <time>2020-07-01T20:07:03Z</time>
      </trkpt>
      <trkpt lat="45.34937" lon="4.48096">
        <ele>1076</ele>
        <time>2020-07-01T20:07:11Z</time>
      </trkpt>
      <trkpt lat="45.34937" lon="4.48145">
        <ele>1081</ele>
        <time>2020-07-01T20:07:19Z</time>
      </trkpt>
      <trkpt lat="45.34934" lon="4.48198">
        <ele>1090</ele>
        <time>2020-07-01T20:07:28Z</time>
      </trkpt>
      <trkpt lat="45.34926" lon="4.48254">
        <ele>1101</ele>
        <time>2020-07-01T20:07:37Z</time>
      </trkpt>
      <trkpt lat="45.34917" lon="4.48259">
        <ele>1103</ele>
        <time>2020-07-01T20:07:39Z</time>
      </trkpt>
      <trkpt lat="45.34913" lon="4.48264">
        <ele>1104</ele>
        <time>2020-07-01T20:07:41Z</time>
      </trkpt>
      <trkpt lat="45.34863" lon="4.48285">
        <ele>1108</ele>
        <time>2020-07-01T20:07:53Z</time>
      </trkpt>
      <trkpt lat="45.34822" lon="4.48314">
        <ele>1113</ele>
        <time>2020-07-01T20:08:04Z</time>
      </trkpt>
      <trkpt lat="45.34811" lon="4.48332">
        <ele>1116</ele>
        <time>2020-07-01T20:08:07Z</time>
      </trkpt>
      <trkpt lat="45.34779" lon="4.48413">
        <ele>1124</ele>
        <time>2020-07-01T20:08:23Z</time>
      </trkpt>
      <trkpt lat="45.34771" lon="4.48449">
        <ele>1128</ele>
        <time>2020-07-01T20:08:29Z</time>
      </trkpt>
      <trkpt lat="45.34769" lon="4.48476">
        <ele>1130</ele>
        <time>2020-07-01T20:08:33Z</time>
      </trkpt>
      <trkpt lat="45.34761" lon="4.48509">
        <ele>1133</ele>
        <time>2020-07-01T20:08:39Z</time>
      </trkpt>
      <trkpt lat="45.3476" lon="4.48537">
        <ele>1134</ele>
        <time>2020-07-01T20:08:44Z</time>
      </trkpt>
      <trkpt lat="45.34746" lon="4.48606">
        <ele>1138</ele>
        <time>2020-07-01T20:08:55Z</time>
      </trkpt>
      <trkpt lat="45.34748" lon="4.4866">
        <ele>1143</ele>
        <time>2020-07-01T20:09:04Z</time>
      </trkpt>
      <trkpt lat="45.34755" lon="4.48715">
        <ele>1146</ele>
        <time>2020-07-01T20:09:14Z</time>
      </trkpt>
      <trkpt lat="45.34756" lon="4.48749">
        <ele>1148</ele>
        <time>2020-07-01T20:09:19Z</time>
      </trkpt>
      <trkpt lat="45.34746" lon="4.48799">
        <ele>1153</ele>
        <time>2020-07-01T20:09:28Z</time>
      </trkpt>
      <trkpt lat="45.34736" lon="4.4883">
        <ele>1155</ele>
        <time>2020-07-01T20:09:33Z</time>
      </trkpt>
      <trkpt lat="45.34722" lon="4.48867">
        <ele>1158</ele>
        <time>2020-07-01T20:09:40Z</time>
      </trkpt>
      <trkpt lat="45.34698" lon="4.48918">
        <ele>1162</ele>
        <time>2020-07-01T20:09:50Z</time>
      </trkpt>
      <trkpt lat="45.34675" lon="4.49018">
        <ele>1169</ele>
        <time>2020-07-01T20:10:07Z</time>
      </trkpt>
      <trkpt lat="45.34665" lon="4.49049">
        <ele>1171</ele>
        <time>2020-07-01T20:10:13Z</time>
      </trkpt>
      <trkpt lat="45.34649" lon="4.49084">
        <ele>1173</ele>
        <time>2020-07-01T20:10:20Z</time>
      </trkpt>
      <trkpt lat="45.34621" lon="4.49121">
        <ele>1171</ele>
        <time>2020-07-01T20:10:29Z</time>
      </trkpt>
      <trkpt lat="45.34607" lon="4.49143">
        <ele>1172</ele>
        <time>2020-07-01T20:10:34Z</time>
      </trkpt>
      <trkpt lat="45.34593" lon="4.49172">
        <ele>1173</ele>
        <time>2020-07-01T20:10:39Z</time>
      </trkpt>
      <trkpt lat="45.34569" lon="4.4921">
        <ele>1173</ele>
        <time>2020-07-01T20:10:48Z</time>
      </trkpt>
      <trkpt lat="45.34546" lon="4.49241">
        <ele>1175</ele>
        <time>2020-07-01T20:10:55Z</time>
      </trkpt>
      <trkpt lat="45.34525" lon="4.49276">
        <ele>1177</ele>
        <time>2020-07-01T20:11:03Z</time>
      </trkpt>
      <trkpt lat="45.3451" lon="4.49321">
        <ele>1180</ele>
        <time>2020-07-01T20:11:11Z</time>
      </trkpt>
      <trkpt lat="45.34492" lon="4.49355">
        <ele>1182</ele>
        <time>2020-07-01T20:11:18Z</time>
      </trkpt>
      <trkpt lat="45.34459" lon="4.49454">
        <ele>1185</ele>
        <time>2020-07-01T20:11:36Z</time>
      </trkpt>
      <trkpt lat="45.34442" lon="4.49478">
        <ele>1189</ele>
        <time>2020-07-01T20:11:42Z</time>
      </trkpt>
      <trkpt lat="45.34429" lon="4.49505">
        <ele>1191</ele>
        <time>2020-07-01T20:11:47Z</time>
      </trkpt>
      <trkpt lat="45.34426" lon="4.49528">
        <ele>1192</ele>
        <time>2020-07-01T20:11:51Z</time>
      </trkpt>
      <trkpt lat="45.34414" lon="4.49557">
        <ele>1193</ele>
        <time>2020-07-01T20:11:56Z</time>
      </trkpt>
      <trkpt lat="45.34412" lon="4.4957">
        <ele>1193</ele>
        <time>2020-07-01T20:11:58Z</time>
      </trkpt>
      <trkpt lat="45.34412" lon="4.49574">
        <ele>1193</ele>
        <time>2020-07-01T20:11:59Z</time>
      </trkpt>
      <trkpt lat="45.34418" lon="4.49578">
        <ele>1193</ele>
        <time>2020-07-01T20:12:01Z</time>
      </trkpt>
      <trkpt lat="45.34421" lon="4.49588">
        <ele>1192</ele>
        <time>2020-07-01T20:12:02Z</time>
      </trkpt>
      <trkpt lat="45.34415" lon="4.49646">
        <ele>1187</ele>
        <time>2020-07-01T20:12:12Z</time>
      </trkpt>
      <trkpt lat="45.34413" lon="4.49698">
        <ele>1187</ele>
        <time>2020-07-01T20:12:21Z</time>
      </trkpt>
      <trkpt lat="45.34416" lon="4.49743">
        <ele>1189</ele>
        <time>2020-07-01T20:12:28Z</time>
      </trkpt>
      <trkpt lat="45.34425" lon="4.49786">
        <ele>1192</ele>
        <time>2020-07-01T20:12:35Z</time>
      </trkpt>
      <trkpt lat="45.34462" lon="4.49867">
        <ele>1190</ele>
        <time>2020-07-01T20:12:51Z</time>
      </trkpt>
      <trkpt lat="45.34465" lon="4.49882">
        <ele>1190</ele>
        <time>2020-07-01T20:12:54Z</time>
      </trkpt>
      <trkpt lat="45.34462" lon="4.49958">
        <ele>1191</ele>
        <time>2020-07-01T20:13:06Z</time>
      </trkpt>
      <trkpt lat="45.3445" lon="4.50017">
        <ele>1192</ele>
        <time>2020-07-01T20:13:16Z</time>
      </trkpt>
      <trkpt lat="45.34434" lon="4.50078">
        <ele>1193</ele>
        <time>2020-07-01T20:13:27Z</time>
      </trkpt>
      <trkpt lat="45.34411" lon="4.50209">
        <ele>1189</ele>
        <time>2020-07-01T20:13:49Z</time>
      </trkpt>
      <trkpt lat="45.34406" lon="4.50248">
        <ele>1187</ele>
        <time>2020-07-01T20:13:56Z</time>
      </trkpt>
      <trkpt lat="45.34405" lon="4.50277">
        <ele>1187</ele>
        <time>2020-07-01T20:14:01Z</time>
      </trkpt>
      <trkpt lat="45.34419" lon="4.50322">
        <ele>1184</ele>
        <time>2020-07-01T20:14:09Z</time>
      </trkpt>
      <trkpt lat="45.34425" lon="4.50352">
        <ele>1184</ele>
        <time>2020-07-01T20:14:14Z</time>
      </trkpt>
      <trkpt lat="45.34428" lon="4.50358">
        <ele>1184</ele>
        <time>2020-07-01T20:14:15Z</time>
      </trkpt>
      <trkpt lat="45.34433" lon="4.5036">
        <ele>1183</ele>
        <time>2020-07-01T20:14:16Z</time>
      </trkpt>
      <trkpt lat="45.3443" lon="4.50375">
        <ele>1185</ele>
        <time>2020-07-01T20:14:19Z</time>
      </trkpt>
      <trkpt lat="45.34432" lon="4.50396">
        <ele>1185</ele>
        <time>2020-07-01T20:14:22Z</time>
      </trkpt>
      <trkpt lat="45.3443" lon="4.50407">
        <ele>1186</ele>
        <time>2020-07-01T20:14:24Z</time>
      </trkpt>
      <trkpt lat="45.34434" lon="4.50425">
        <ele>1187</ele>
        <time>2020-07-01T20:14:27Z</time>
      </trkpt>
      <trkpt lat="45.3448" lon="4.50503">
        <ele>1192</ele>
        <time>2020-07-01T20:14:44Z</time>
      </trkpt>
      <trkpt lat="45.34488" lon="4.50522">
        <ele>1195</ele>
        <time>2020-07-01T20:14:48Z</time>
      </trkpt>
      <trkpt lat="45.34504" lon="4.50539">
        <ele>1197</ele>
        <time>2020-07-01T20:14:52Z</time>
      </trkpt>
      <trkpt lat="45.34517" lon="4.50545">
        <ele>1199</ele>
        <time>2020-07-01T20:14:55Z</time>
      </trkpt>
      <trkpt lat="45.34534" lon="4.50546">
        <ele>1200</ele>
        <time>2020-07-01T20:14:59Z</time>
      </trkpt>
      <trkpt lat="45.34608" lon="4.50538">
        <ele>1203</ele>
        <time>2020-07-01T20:15:17Z</time>
      </trkpt>
      <trkpt lat="45.34641" lon="4.50541">
        <ele>1205</ele>
        <time>2020-07-01T20:15:24Z</time>
      </trkpt>
      <trkpt lat="45.34667" lon="4.50553">
        <ele>1207</ele>
        <time>2020-07-01T20:15:31Z</time>
      </trkpt>
      <trkpt lat="45.34686" lon="4.50569">
        <ele>1208</ele>
        <time>2020-07-01T20:15:36Z</time>
      </trkpt>
      <trkpt lat="45.34689" lon="4.50577">
        <ele>1208</ele>
        <time>2020-07-01T20:15:37Z</time>
      </trkpt>
      <trkpt lat="45.34692" lon="4.50607">
        <ele>1209</ele>
        <time>2020-07-01T20:15:42Z</time>
      </trkpt>
      <trkpt lat="45.34687" lon="4.50653">
        <ele>1212</ele>
        <time>2020-07-01T20:15:50Z</time>
      </trkpt>
      <trkpt lat="45.34689" lon="4.50657">
        <ele>1212</ele>
        <time>2020-07-01T20:15:51Z</time>
      </trkpt>
      <trkpt lat="45.34691" lon="4.50714">
        <ele>1213</ele>
        <time>2020-07-01T20:16:00Z</time>
      </trkpt>
      <trkpt lat="45.34698" lon="4.50753">
        <ele>1212</ele>
        <time>2020-07-01T20:16:07Z</time>
      </trkpt>
      <trkpt lat="45.34709" lon="4.50887">
        <ele>1206</ele>
        <time>2020-07-01T20:16:29Z</time>
      </trkpt>
      <trkpt lat="45.34722" lon="4.5094">
        <ele>1204</ele>
        <time>2020-07-01T20:16:38Z</time>
      </trkpt>
      <trkpt lat="45.34725" lon="4.50965">
        <ele>1204</ele>
        <time>2020-07-01T20:16:42Z</time>
      </trkpt>
      <trkpt lat="45.34719" lon="4.5102">
        <ele>1203</ele>
        <time>2020-07-01T20:16:51Z</time>
      </trkpt>
      <trkpt lat="45.34716" lon="4.51076">
        <ele>1199</ele>
        <time>2020-07-01T20:17:01Z</time>
      </trkpt>
      <trkpt lat="45.34707" lon="4.51095">
        <ele>1198</ele>
        <time>2020-07-01T20:17:04Z</time>
      </trkpt>
      <trkpt lat="45.34696" lon="4.51111">
        <ele>1199</ele>
        <time>2020-07-01T20:17:08Z</time>
      </trkpt>
      <trkpt lat="45.34689" lon="4.51129">
        <ele>1199</ele>
        <time>2020-07-01T20:17:12Z</time>
      </trkpt>
      <trkpt lat="45.34689" lon="4.51156">
        <ele>1197</ele>
        <time>2020-07-01T20:17:16Z</time>
      </trkpt>
      <trkpt lat="45.34701" lon="4.51224">
        <ele>1201</ele>
        <time>2020-07-01T20:17:27Z</time>
      </trkpt>
      <trkpt lat="45.34716" lon="4.51248">
        <ele>1201</ele>
        <time>2020-07-01T20:17:33Z</time>
      </trkpt>
      <trkpt lat="45.34787" lon="4.51327">
        <ele>1205</ele>
        <time>2020-07-01T20:17:54Z</time>
      </trkpt>
      <trkpt lat="45.34803" lon="4.51348">
        <ele>1205</ele>
        <time>2020-07-01T20:17:59Z</time>
      </trkpt>
      <trkpt lat="45.34842" lon="4.51445">
        <ele>1202</ele>
        <time>2020-07-01T20:18:17Z</time>
      </trkpt>
      <trkpt lat="45.34873" lon="4.51484">
        <ele>1197</ele>
        <time>2020-07-01T20:18:27Z</time>
      </trkpt>
      <trkpt lat="45.34897" lon="4.5154">
        <ele>1194</ele>
        <time>2020-07-01T20:18:38Z</time>
      </trkpt>
      <trkpt lat="45.34903" lon="4.51549">
        <ele>1193</ele>
        <time>2020-07-01T20:18:40Z</time>
      </trkpt>
      <trkpt lat="45.34917" lon="4.5156">
        <ele>1190</ele>
        <time>2020-07-01T20:18:43Z</time>
      </trkpt>
      <trkpt lat="45.34982" lon="4.51575">
        <ele>1193</ele>
        <time>2020-07-01T20:18:59Z</time>
      </trkpt>
      <trkpt lat="45.35015" lon="4.5158">
        <ele>1195</ele>
        <time>2020-07-01T20:19:07Z</time>
      </trkpt>
      <trkpt lat="45.35046" lon="4.51595">
        <ele>1199</ele>
        <time>2020-07-01T20:19:14Z</time>
      </trkpt>
      <trkpt lat="45.35086" lon="4.51599">
        <ele>1202</ele>
        <time>2020-07-01T20:19:24Z</time>
      </trkpt>
      <trkpt lat="45.35141" lon="4.51591">
        <ele>1198</ele>
        <time>2020-07-01T20:19:36Z</time>
      </trkpt>
      <trkpt lat="45.35219" lon="4.51592">
        <ele>1195</ele>
        <time>2020-07-01T20:19:55Z</time>
      </trkpt>
      <trkpt lat="45.35317" lon="4.51609">
        <ele>1193</ele>
        <time>2020-07-01T20:20:18Z</time>
      </trkpt>
      <trkpt lat="45.35346" lon="4.51618">
        <ele>1195</ele>
        <time>2020-07-01T20:20:25Z</time>
      </trkpt>
      <trkpt lat="45.3536" lon="4.51611">
        <ele>1196</ele>
        <time>2020-07-01T20:20:28Z</time>
      </trkpt>
      <trkpt lat="45.35374" lon="4.51592">
        <ele>1195</ele>
        <time>2020-07-01T20:20:33Z</time>
      </trkpt>
      <trkpt lat="45.35379" lon="4.51577">
        <ele>1194</ele>
        <time>2020-07-01T20:20:35Z</time>
      </trkpt>
      <trkpt lat="45.35383" lon="4.51542">
        <ele>1191</ele>
        <time>2020-07-01T20:20:41Z</time>
      </trkpt>
      <trkpt lat="45.35389" lon="4.51517">
        <ele>1190</ele>
        <time>2020-07-01T20:20:45Z</time>
      </trkpt>
      <trkpt lat="45.35385" lon="4.51563">
        <ele>1193</ele>
        <time>2020-07-01T20:20:53Z</time>
      </trkpt>
      <trkpt lat="45.3538" lon="4.51591">
        <ele>1195</ele>
        <time>2020-07-01T20:20:58Z</time>
      </trkpt>
      <trkpt lat="45.3537" lon="4.51608">
        <ele>1196</ele>
        <time>2020-07-01T20:21:01Z</time>
      </trkpt>
      <trkpt lat="45.35358" lon="4.51618">
        <ele>1196</ele>
        <time>2020-07-01T20:21:05Z</time>
      </trkpt>
      <trkpt lat="45.35359" lon="4.51622">
        <ele>1197</ele>
        <time>2020-07-01T20:21:05Z</time>
      </trkpt>
      <trkpt lat="45.35356" lon="4.51625">
        <ele>1197</ele>
        <time>2020-07-01T20:21:06Z</time>
      </trkpt>
      <trkpt lat="45.35379" lon="4.51583">
        <ele>1194</ele>
        <time>2020-07-01T20:21:15Z</time>
      </trkpt>
      <trkpt lat="45.35383" lon="4.5155">
        <ele>1192</ele>
        <time>2020-07-01T20:21:21Z</time>
      </trkpt>
      <trkpt lat="45.35395" lon="4.51506">
        <ele>1190</ele>
        <time>2020-07-01T20:21:28Z</time>
      </trkpt>
      <trkpt lat="45.35426" lon="4.51487">
        <ele>1192</ele>
        <time>2020-07-01T20:21:36Z</time>
      </trkpt>
      <trkpt lat="45.35448" lon="4.51483">
        <ele>1194</ele>
        <time>2020-07-01T20:21:41Z</time>
      </trkpt>
      <trkpt lat="45.35474" lon="4.51482">
        <ele>1197</ele>
        <time>2020-07-01T20:21:47Z</time>
      </trkpt>
      <trkpt lat="45.35503" lon="4.51485">
        <ele>1200</ele>
        <time>2020-07-01T20:21:54Z</time>
      </trkpt>
      <trkpt lat="45.35531" lon="4.51471">
        <ele>1203</ele>
        <time>2020-07-01T20:22:01Z</time>
      </trkpt>
      <trkpt lat="45.35596" lon="4.51446">
        <ele>1208</ele>
        <time>2020-07-01T20:22:17Z</time>
      </trkpt>
      <trkpt lat="45.35677" lon="4.51427">
        <ele>1209</ele>
        <time>2020-07-01T20:22:36Z</time>
      </trkpt>
      <trkpt lat="45.35697" lon="4.51425">
        <ele>1209</ele>
        <time>2020-07-01T20:22:41Z</time>
      </trkpt>
      <trkpt lat="45.35734" lon="4.51426">
        <ele>1210</ele>
        <time>2020-07-01T20:22:49Z</time>
      </trkpt>
      <trkpt lat="45.35741" lon="4.51423">
        <ele>1210</ele>
        <time>2020-07-01T20:22:51Z</time>
      </trkpt>
      <trkpt lat="45.35752" lon="4.51412">
        <ele>1209</ele>
        <time>2020-07-01T20:22:54Z</time>
      </trkpt>
      <trkpt lat="45.35764" lon="4.51406">
        <ele>1209</ele>
        <time>2020-07-01T20:22:57Z</time>
      </trkpt>
      <trkpt lat="45.35885" lon="4.51377">
        <ele>1213</ele>
        <time>2020-07-01T20:23:26Z</time>
      </trkpt>
      <trkpt lat="45.35927" lon="4.51363">
        <ele>1212</ele>
        <time>2020-07-01T20:23:36Z</time>
      </trkpt>
      <trkpt lat="45.3595" lon="4.51359">
        <ele>1213</ele>
        <time>2020-07-01T20:23:41Z</time>
      </trkpt>
      <trkpt lat="45.35987" lon="4.51362">
        <ele>1214</ele>
        <time>2020-07-01T20:23:50Z</time>
      </trkpt>
      <trkpt lat="45.36043" lon="4.51353">
        <ele>1212</ele>
        <time>2020-07-01T20:24:03Z</time>
      </trkpt>
      <trkpt lat="45.36089" lon="4.51329">
        <ele>1208</ele>
        <time>2020-07-01T20:24:15Z</time>
      </trkpt>
      <trkpt lat="45.3616" lon="4.51308">
        <ele>1204</ele>
        <time>2020-07-01T20:24:31Z</time>
      </trkpt>
      <trkpt lat="45.3618" lon="4.51297">
        <ele>1202</ele>
        <time>2020-07-01T20:24:36Z</time>
      </trkpt>
      <trkpt lat="45.36203" lon="4.51289">
        <ele>1200</ele>
        <time>2020-07-01T20:24:42Z</time>
      </trkpt>
      <trkpt lat="45.36249" lon="4.51279">
        <ele>1197</ele>
        <time>2020-07-01T20:24:53Z</time>
      </trkpt>
      <trkpt lat="45.36259" lon="4.51282">
        <ele>1196</ele>
        <time>2020-07-01T20:24:55Z</time>
      </trkpt>
      <trkpt lat="45.36271" lon="4.51309">
        <ele>1196</ele>
        <time>2020-07-01T20:25:01Z</time>
      </trkpt>
      <trkpt lat="45.36281" lon="4.51364">
        <ele>1195</ele>
        <time>2020-07-01T20:25:10Z</time>
      </trkpt>
      <trkpt lat="45.36284" lon="4.51373">
        <ele>1194</ele>
        <time>2020-07-01T20:25:11Z</time>
      </trkpt>
      <trkpt lat="45.3629" lon="4.51376">
        <ele>1193</ele>
        <time>2020-07-01T20:25:13Z</time>
      </trkpt>
      <trkpt lat="45.36292" lon="4.51423">
        <ele>1191</ele>
        <time>2020-07-01T20:25:21Z</time>
      </trkpt>
      <trkpt lat="45.36283" lon="4.51537">
        <ele>1187</ele>
        <time>2020-07-01T20:25:40Z</time>
      </trkpt>
      <trkpt lat="45.36284" lon="4.51567">
        <ele>1184</ele>
        <time>2020-07-01T20:25:44Z</time>
      </trkpt>
      <trkpt lat="45.36296" lon="4.51628">
        <ele>1176</ele>
        <time>2020-07-01T20:25:55Z</time>
      </trkpt>
      <trkpt lat="45.36296" lon="4.51654">
        <ele>1174</ele>
        <time>2020-07-01T20:25:59Z</time>
      </trkpt>
      <trkpt lat="45.36289" lon="4.51725">
        <ele>1168</ele>
        <time>2020-07-01T20:26:11Z</time>
      </trkpt>
      <trkpt lat="45.3629" lon="4.51735">
        <ele>1166</ele>
        <time>2020-07-01T20:26:13Z</time>
      </trkpt>
      <trkpt lat="45.36303" lon="4.51756">
        <ele>1163</ele>
        <time>2020-07-01T20:26:17Z</time>
      </trkpt>
      <trkpt lat="45.36318" lon="4.51766">
        <ele>1162</ele>
        <time>2020-07-01T20:26:21Z</time>
      </trkpt>
      <trkpt lat="45.36325" lon="4.5179">
        <ele>1162</ele>
        <time>2020-07-01T20:26:25Z</time>
      </trkpt>
      <trkpt lat="45.36321" lon="4.51794">
        <ele>1163</ele>
        <time>2020-07-01T20:26:26Z</time>
      </trkpt>
      <trkpt lat="45.36276" lon="4.51815">
        <ele>1167</ele>
        <time>2020-07-01T20:26:37Z</time>
      </trkpt>
      <trkpt lat="45.36246" lon="4.51838">
        <ele>1169</ele>
        <time>2020-07-01T20:26:45Z</time>
      </trkpt>
      <trkpt lat="45.3622" lon="4.51914">
        <ele>1176</ele>
        <time>2020-07-01T20:26:59Z</time>
      </trkpt>
      <trkpt lat="45.36203" lon="4.51945">
        <ele>1178</ele>
        <time>2020-07-01T20:27:06Z</time>
      </trkpt>
      <trkpt lat="45.36181" lon="4.5197">
        <ele>1181</ele>
        <time>2020-07-01T20:27:12Z</time>
      </trkpt>
      <trkpt lat="45.36168" lon="4.52016">
        <ele>1185</ele>
        <time>2020-07-01T20:27:20Z</time>
      </trkpt>
      <trkpt lat="45.36139" lon="4.52076">
        <ele>1193</ele>
        <time>2020-07-01T20:27:32Z</time>
      </trkpt>
      <trkpt lat="45.36134" lon="4.52093">
        <ele>1195</ele>
        <time>2020-07-01T20:27:35Z</time>
      </trkpt>
      <trkpt lat="45.36136" lon="4.52099">
        <ele>1196</ele>
        <time>2020-07-01T20:27:37Z</time>
      </trkpt>
      <trkpt lat="45.36133" lon="4.52133">
        <ele>1200</ele>
        <time>2020-07-01T20:27:42Z</time>
      </trkpt>
      <trkpt lat="45.36138" lon="4.52162">
        <ele>1203</ele>
        <time>2020-07-01T20:27:47Z</time>
      </trkpt>
      <trkpt lat="45.36184" lon="4.52214">
        <ele>1206</ele>
        <time>2020-07-01T20:28:01Z</time>
      </trkpt>
      <trkpt lat="45.36186" lon="4.52222">
        <ele>1207</ele>
        <time>2020-07-01T20:28:02Z</time>
      </trkpt>
      <trkpt lat="45.36221" lon="4.52282">
        <ele>1213</ele>
        <time>2020-07-01T20:28:15Z</time>
      </trkpt>
      <trkpt lat="45.36242" lon="4.5237">
        <ele>1222</ele>
        <time>2020-07-01T20:28:30Z</time>
      </trkpt>
      <trkpt lat="45.36256" lon="4.52394">
        <ele>1223</ele>
        <time>2020-07-01T20:28:35Z</time>
      </trkpt>
      <trkpt lat="45.3626" lon="4.52406">
        <ele>1224</ele>
        <time>2020-07-01T20:28:37Z</time>
      </trkpt>
      <trkpt lat="45.36282" lon="4.52448">
        <ele>1226</ele>
        <time>2020-07-01T20:28:46Z</time>
      </trkpt>
      <trkpt lat="45.36311" lon="4.52495">
        <ele>1228</ele>
        <time>2020-07-01T20:28:56Z</time>
      </trkpt>
      <trkpt lat="45.36336" lon="4.52529">
        <ele>1229</ele>
        <time>2020-07-01T20:29:04Z</time>
      </trkpt>
      <trkpt lat="45.36356" lon="4.52572">
        <ele>1234</ele>
        <time>2020-07-01T20:29:13Z</time>
      </trkpt>
      <trkpt lat="45.36359" lon="4.52584">
        <ele>1236</ele>
        <time>2020-07-01T20:29:15Z</time>
      </trkpt>
      <trkpt lat="45.36371" lon="4.526">
        <ele>1238</ele>
        <time>2020-07-01T20:29:19Z</time>
      </trkpt>
      <trkpt lat="45.36369" lon="4.52608">
        <ele>1239</ele>
        <time>2020-07-01T20:29:20Z</time>
      </trkpt>
      <trkpt lat="45.36344" lon="4.526">
        <ele>1238</ele>
        <time>2020-07-01T20:29:26Z</time>
      </trkpt>
      <trkpt lat="45.36324" lon="4.52601">
        <ele>1240</ele>
        <time>2020-07-01T20:29:31Z</time>
      </trkpt>
      <trkpt lat="45.36279" lon="4.5259">
        <ele>1244</ele>
        <time>2020-07-01T20:29:42Z</time>
      </trkpt>
      <trkpt lat="45.36238" lon="4.52576">
        <ele>1247</ele>
        <time>2020-07-01T20:29:51Z</time>
      </trkpt>
      <trkpt lat="45.36159" lon="4.52561">
        <ele>1253</ele>
        <time>2020-07-01T20:30:10Z</time>
      </trkpt>
      <trkpt lat="45.36093" lon="4.52542">
        <ele>1252</ele>
        <time>2020-07-01T20:30:26Z</time>
      </trkpt>
      <trkpt lat="45.3609" lon="4.52539">
        <ele>1252</ele>
        <time>2020-07-01T20:30:27Z</time>
      </trkpt>
      <trkpt lat="45.35996" lon="4.52513">
        <ele>1254</ele>
        <time>2020-07-01T20:30:49Z</time>
      </trkpt>
      <trkpt lat="45.35944" lon="4.52504">
        <ele>1253</ele>
        <time>2020-07-01T20:31:01Z</time>
      </trkpt>
      <trkpt lat="45.35859" lon="4.52477">
        <ele>1254</ele>
        <time>2020-07-01T20:31:21Z</time>
      </trkpt>
      <trkpt lat="45.35829" lon="4.52471">
        <ele>1255</ele>
        <time>2020-07-01T20:31:29Z</time>
      </trkpt>
      <trkpt lat="45.35729" lon="4.5244">
        <ele>1256</ele>
        <time>2020-07-01T20:31:52Z</time>
      </trkpt>
      <trkpt lat="45.35724" lon="4.52434">
        <ele>1256</ele>
        <time>2020-07-01T20:31:54Z</time>
      </trkpt>
      <trkpt lat="45.35721" lon="4.52439">
        <ele>1256</ele>
        <time>2020-07-01T20:31:55Z</time>
      </trkpt>
      <trkpt lat="45.35717" lon="4.52435">
        <ele>1256</ele>
        <time>2020-07-01T20:31:56Z</time>
      </trkpt>
      <trkpt lat="45.35635" lon="4.5241">
        <ele>1261</ele>
        <time>2020-07-01T20:32:16Z</time>
      </trkpt>
      <trkpt lat="45.35563" lon="4.52403">
        <ele>1269</ele>
        <time>2020-07-01T20:32:33Z</time>
      </trkpt>
      <trkpt lat="45.35525" lon="4.52389">
        <ele>1275</ele>
        <time>2020-07-01T20:32:42Z</time>
      </trkpt>
      <trkpt lat="45.35452" lon="4.52371">
        <ele>1281</ele>
        <time>2020-07-01T20:32:59Z</time>
      </trkpt>
      <trkpt lat="45.35421" lon="4.52359">
        <ele>1282</ele>
        <time>2020-07-01T20:33:07Z</time>
      </trkpt>
      <trkpt lat="45.3539" lon="4.52365">
        <ele>1283</ele>
        <time>2020-07-01T20:33:14Z</time>
      </trkpt>
      <trkpt lat="45.35288" lon="4.52336">
        <ele>1280</ele>
        <time>2020-07-01T20:33:38Z</time>
      </trkpt>
      <trkpt lat="45.35201" lon="4.52319">
        <ele>1280</ele>
        <time>2020-07-01T20:33:59Z</time>
      </trkpt>
      <trkpt lat="45.35163" lon="4.52315">
        <ele>1280</ele>
        <time>2020-07-01T20:34:08Z</time>
      </trkpt>
      <trkpt lat="45.35141" lon="4.52308">
        <ele>1280</ele>
        <time>2020-07-01T20:34:13Z</time>
      </trkpt>
      <trkpt lat="45.35117" lon="4.52304">
        <ele>1279</ele>
        <time>2020-07-01T20:34:19Z</time>
      </trkpt>
      <trkpt lat="45.3507" lon="4.52304">
        <ele>1279</ele>
        <time>2020-07-01T20:34:30Z</time>
      </trkpt>
      <trkpt lat="45.35041" lon="4.52292">
        <ele>1277</ele>
        <time>2020-07-01T20:34:37Z</time>
      </trkpt>
      <trkpt lat="45.35019" lon="4.52293">
        <ele>1276</ele>
        <time>2020-07-01T20:34:42Z</time>
      </trkpt>
      <trkpt lat="45.3499" lon="4.523">
        <ele>1276</ele>
        <time>2020-07-01T20:34:49Z</time>
      </trkpt>
      <trkpt lat="45.34951" lon="4.52328">
        <ele>1277</ele>
        <time>2020-07-01T20:34:59Z</time>
      </trkpt>
      <trkpt lat="45.34908" lon="4.52351">
        <ele>1276</ele>
        <time>2020-07-01T20:35:10Z</time>
      </trkpt>
      <trkpt lat="45.34902" lon="4.52352">
        <ele>1276</ele>
        <time>2020-07-01T20:35:11Z</time>
      </trkpt>
      <trkpt lat="45.3485" lon="4.52385">
        <ele>1278</ele>
        <time>2020-07-01T20:35:24Z</time>
      </trkpt>
      <trkpt lat="45.34831" lon="4.5241">
        <ele>1279</ele>
        <time>2020-07-01T20:35:30Z</time>
      </trkpt>
      <trkpt lat="45.34808" lon="4.52461">
        <ele>1283</ele>
        <time>2020-07-01T20:35:40Z</time>
      </trkpt>
      <trkpt lat="45.3479" lon="4.52491">
        <ele>1284</ele>
        <time>2020-07-01T20:35:47Z</time>
      </trkpt>
      <trkpt lat="45.34771" lon="4.52535">
        <ele>1283</ele>
        <time>2020-07-01T20:35:55Z</time>
      </trkpt>
      <trkpt lat="45.34751" lon="4.52621">
        <ele>1283</ele>
        <time>2020-07-01T20:36:10Z</time>
      </trkpt>
      <trkpt lat="45.34741" lon="4.52618">
        <ele>1283</ele>
        <time>2020-07-01T20:36:12Z</time>
      </trkpt>
      <trkpt lat="45.34722" lon="4.52599">
        <ele>1285</ele>
        <time>2020-07-01T20:36:18Z</time>
      </trkpt>
      <trkpt lat="45.34697" lon="4.52581">
        <ele>1286</ele>
        <time>2020-07-01T20:36:24Z</time>
      </trkpt>
      <trkpt lat="45.34666" lon="4.52567">
        <ele>1288</ele>
        <time>2020-07-01T20:36:32Z</time>
      </trkpt>
      <trkpt lat="45.34589" lon="4.52552">
        <ele>1294</ele>
        <time>2020-07-01T20:36:50Z</time>
      </trkpt>
      <trkpt lat="45.34569" lon="4.52533">
        <ele>1297</ele>
        <time>2020-07-01T20:36:56Z</time>
      </trkpt>
      <trkpt lat="45.3454" lon="4.52484">
        <ele>1302</ele>
        <time>2020-07-01T20:37:06Z</time>
      </trkpt>
      <trkpt lat="45.3452" lon="4.52442">
        <ele>1303</ele>
        <time>2020-07-01T20:37:15Z</time>
      </trkpt>
      <trkpt lat="45.34503" lon="4.52392">
        <ele>1304</ele>
        <time>2020-07-01T20:37:24Z</time>
      </trkpt>
      <trkpt lat="45.34489" lon="4.52339">
        <ele>1303</ele>
        <time>2020-07-01T20:37:33Z</time>
      </trkpt>
      <trkpt lat="45.34477" lon="4.52261">
        <ele>1301</ele>
        <time>2020-07-01T20:37:46Z</time>
      </trkpt>
      <trkpt lat="45.34473" lon="4.52251">
        <ele>1301</ele>
        <time>2020-07-01T20:37:48Z</time>
      </trkpt>
      <trkpt lat="45.34445" lon="4.52214">
        <ele>1302</ele>
        <time>2020-07-01T20:37:57Z</time>
      </trkpt>
      <trkpt lat="45.34433" lon="4.52191">
        <ele>1301</ele>
        <time>2020-07-01T20:38:02Z</time>
      </trkpt>
      <trkpt lat="45.34408" lon="4.52154">
        <ele>1300</ele>
        <time>2020-07-01T20:38:10Z</time>
      </trkpt>
      <trkpt lat="45.34373" lon="4.52078">
        <ele>1295</ele>
        <time>2020-07-01T20:38:25Z</time>
      </trkpt>
      <trkpt lat="45.34368" lon="4.52058">
        <ele>1293</ele>
        <time>2020-07-01T20:38:28Z</time>
      </trkpt>
      <trkpt lat="45.34355" lon="4.51965">
        <ele>1287</ele>
        <time>2020-07-01T20:38:44Z</time>
      </trkpt>
      <trkpt lat="45.34344" lon="4.51911">
        <ele>1283</ele>
        <time>2020-07-01T20:38:53Z</time>
      </trkpt>
      <trkpt lat="45.34336" lon="4.51891">
        <ele>1282</ele>
        <time>2020-07-01T20:38:57Z</time>
      </trkpt>
      <trkpt lat="45.34308" lon="4.51855">
        <ele>1277</ele>
        <time>2020-07-01T20:39:06Z</time>
      </trkpt>
      <trkpt lat="45.34286" lon="4.51841">
        <ele>1275</ele>
        <time>2020-07-01T20:39:11Z</time>
      </trkpt>
      <trkpt lat="45.34258" lon="4.51812">
        <ele>1274</ele>
        <time>2020-07-01T20:39:20Z</time>
      </trkpt>
      <trkpt lat="45.34242" lon="4.51786">
        <ele>1272</ele>
        <time>2020-07-01T20:39:25Z</time>
      </trkpt>
      <trkpt lat="45.34222" lon="4.51671">
        <ele>1270</ele>
        <time>2020-07-01T20:39:45Z</time>
      </trkpt>
      <trkpt lat="45.34183" lon="4.51554">
        <ele>1268</ele>
        <time>2020-07-01T20:40:06Z</time>
      </trkpt>
      <trkpt lat="45.34164" lon="4.5151">
        <ele>1267</ele>
        <time>2020-07-01T20:40:14Z</time>
      </trkpt>
      <trkpt lat="45.34161" lon="4.51479">
        <ele>1267</ele>
        <time>2020-07-01T20:40:20Z</time>
      </trkpt>
      <trkpt lat="45.34154" lon="4.51444">
        <ele>1267</ele>
        <time>2020-07-01T20:40:25Z</time>
      </trkpt>
      <trkpt lat="45.34128" lon="4.51398">
        <ele>1266</ele>
        <time>2020-07-01T20:40:35Z</time>
      </trkpt>
      <trkpt lat="45.34111" lon="4.51347">
        <ele>1269</ele>
        <time>2020-07-01T20:40:44Z</time>
      </trkpt>
      <trkpt lat="45.34063" lon="4.51261">
        <ele>1274</ele>
        <time>2020-07-01T20:41:02Z</time>
      </trkpt>
      <trkpt lat="45.34059" lon="4.51242">
        <ele>1275</ele>
        <time>2020-07-01T20:41:06Z</time>
      </trkpt>
      <trkpt lat="45.34039" lon="4.51202">
        <ele>1275</ele>
        <time>2020-07-01T20:41:14Z</time>
      </trkpt>
      <trkpt lat="45.34035" lon="4.51184">
        <ele>1276</ele>
        <time>2020-07-01T20:41:17Z</time>
      </trkpt>
      <trkpt lat="45.34034" lon="4.51162">
        <ele>1276</ele>
        <time>2020-07-01T20:41:20Z</time>
      </trkpt>
      <trkpt lat="45.34018" lon="4.51086">
        <ele>1273</ele>
        <time>2020-07-01T20:41:34Z</time>
      </trkpt>
      <trkpt lat="45.34013" lon="4.51036">
        <ele>1271</ele>
        <time>2020-07-01T20:41:42Z</time>
      </trkpt>
      <trkpt lat="45.33991" lon="4.50879">
        <ele>1267</ele>
        <time>2020-07-01T20:42:08Z</time>
      </trkpt>
      <trkpt lat="45.33967" lon="4.5079">
        <ele>1261</ele>
        <time>2020-07-01T20:42:24Z</time>
      </trkpt>
      <trkpt lat="45.33962" lon="4.50743">
        <ele>1258</ele>
        <time>2020-07-01T20:42:32Z</time>
      </trkpt>
      <trkpt lat="45.33964" lon="4.50709">
        <ele>1256</ele>
        <time>2020-07-01T20:42:37Z</time>
      </trkpt>
      <trkpt lat="45.33978" lon="4.50643">
        <ele>1252</ele>
        <time>2020-07-01T20:42:48Z</time>
      </trkpt>
      <trkpt lat="45.33992" lon="4.50614">
        <ele>1251</ele>
        <time>2020-07-01T20:42:54Z</time>
      </trkpt>
      <trkpt lat="45.34024" lon="4.50505">
        <ele>1246</ele>
        <time>2020-07-01T20:43:14Z</time>
      </trkpt>
      <trkpt lat="45.34033" lon="4.50519">
        <ele>1246</ele>
        <time>2020-07-01T20:43:17Z</time>
      </trkpt>
      <trkpt lat="45.34039" lon="4.50504">
        <ele>1246</ele>
        <time>2020-07-01T20:43:20Z</time>
      </trkpt>
      <trkpt lat="45.34033" lon="4.50447">
        <ele>1244</ele>
        <time>2020-07-01T20:43:29Z</time>
      </trkpt>
      <trkpt lat="45.34041" lon="4.50374">
        <ele>1241</ele>
        <time>2020-07-01T20:43:41Z</time>
      </trkpt>
      <trkpt lat="45.34032" lon="4.50266">
        <ele>1236</ele>
        <time>2020-07-01T20:43:59Z</time>
      </trkpt>
      <trkpt lat="45.34024" lon="4.50239">
        <ele>1237</ele>
        <time>2020-07-01T20:44:04Z</time>
      </trkpt>
      <trkpt lat="45.3399" lon="4.5017">
        <ele>1240</ele>
        <time>2020-07-01T20:44:18Z</time>
      </trkpt>
      <trkpt lat="45.33978" lon="4.50152">
        <ele>1239</ele>
        <time>2020-07-01T20:44:22Z</time>
      </trkpt>
      <trkpt lat="45.33888" lon="4.50042">
        <ele>1241</ele>
        <time>2020-07-01T20:44:49Z</time>
      </trkpt>
      <trkpt lat="45.33868" lon="4.50014">
        <ele>1245</ele>
        <time>2020-07-01T20:44:56Z</time>
      </trkpt>
      <trkpt lat="45.33852" lon="4.49967">
        <ele>1249</ele>
        <time>2020-07-01T20:45:05Z</time>
      </trkpt>
      <trkpt lat="45.33816" lon="4.49893">
        <ele>1254</ele>
        <time>2020-07-01T20:45:19Z</time>
      </trkpt>
      <trkpt lat="45.33799" lon="4.49869">
        <ele>1255</ele>
        <time>2020-07-01T20:45:25Z</time>
      </trkpt>
      <trkpt lat="45.3378" lon="4.49848">
        <ele>1255</ele>
        <time>2020-07-01T20:45:31Z</time>
      </trkpt>
      <trkpt lat="45.33768" lon="4.49828">
        <ele>1256</ele>
        <time>2020-07-01T20:45:35Z</time>
      </trkpt>
      <trkpt lat="45.33756" lon="4.49791">
        <ele>1255</ele>
        <time>2020-07-01T20:45:42Z</time>
      </trkpt>
      <trkpt lat="45.33756" lon="4.49774">
        <ele>1255</ele>
        <time>2020-07-01T20:45:44Z</time>
      </trkpt>
      <trkpt lat="45.33748" lon="4.49724">
        <ele>1255</ele>
        <time>2020-07-01T20:45:53Z</time>
      </trkpt>
      <trkpt lat="45.33726" lon="4.49691">
        <ele>1257</ele>
        <time>2020-07-01T20:46:00Z</time>
      </trkpt>
      <trkpt lat="45.33692" lon="4.49657">
        <ele>1257</ele>
        <time>2020-07-01T20:46:10Z</time>
      </trkpt>
      <trkpt lat="45.33611" lon="4.49638">
        <ele>1259</ele>
        <time>2020-07-01T20:46:29Z</time>
      </trkpt>
      <trkpt lat="45.33584" lon="4.49629">
        <ele>1260</ele>
        <time>2020-07-01T20:46:36Z</time>
      </trkpt>
      <trkpt lat="45.33563" lon="4.4961">
        <ele>1261</ele>
        <time>2020-07-01T20:46:41Z</time>
      </trkpt>
      <trkpt lat="45.33498" lon="4.49562">
        <ele>1262</ele>
        <time>2020-07-01T20:46:58Z</time>
      </trkpt>
      <trkpt lat="45.33461" lon="4.49493">
        <ele>1264</ele>
        <time>2020-07-01T20:47:13Z</time>
      </trkpt>
      <trkpt lat="45.33442" lon="4.4944">
        <ele>1263</ele>
        <time>2020-07-01T20:47:23Z</time>
      </trkpt>
      <trkpt lat="45.33434" lon="4.49425">
        <ele>1262</ele>
        <time>2020-07-01T20:47:26Z</time>
      </trkpt>
      <trkpt lat="45.33376" lon="4.49327">
        <ele>1259</ele>
        <time>2020-07-01T20:47:47Z</time>
      </trkpt>
      <trkpt lat="45.33357" lon="4.49306">
        <ele>1260</ele>
        <time>2020-07-01T20:47:52Z</time>
      </trkpt>
      <trkpt lat="45.33337" lon="4.49273">
        <ele>1260</ele>
        <time>2020-07-01T20:47:59Z</time>
      </trkpt>
      <trkpt lat="45.33326" lon="4.49239">
        <ele>1259</ele>
        <time>2020-07-01T20:48:06Z</time>
      </trkpt>
      <trkpt lat="45.33312" lon="4.49147">
        <ele>1255</ele>
        <time>2020-07-01T20:48:21Z</time>
      </trkpt>
      <trkpt lat="45.33303" lon="4.49107">
        <ele>1254</ele>
        <time>2020-07-01T20:48:28Z</time>
      </trkpt>
      <trkpt lat="45.33289" lon="4.49076">
        <ele>1253</ele>
        <time>2020-07-01T20:48:34Z</time>
      </trkpt>
      <trkpt lat="45.33271" lon="4.49048">
        <ele>1253</ele>
        <time>2020-07-01T20:48:40Z</time>
      </trkpt>
      <trkpt lat="45.33229" lon="4.49016">
        <ele>1249</ele>
        <time>2020-07-01T20:48:51Z</time>
      </trkpt>
      <trkpt lat="45.33219" lon="4.49005">
        <ele>1248</ele>
        <time>2020-07-01T20:48:54Z</time>
      </trkpt>
      <trkpt lat="45.33186" lon="4.48979">
        <ele>1245</ele>
        <time>2020-07-01T20:49:03Z</time>
      </trkpt>
      <trkpt lat="45.33172" lon="4.48965">
        <ele>1243</ele>
        <time>2020-07-01T20:49:07Z</time>
      </trkpt>
      <trkpt lat="45.33165" lon="4.48964">
        <ele>1243</ele>
        <time>2020-07-01T20:49:09Z</time>
      </trkpt>
      <trkpt lat="45.33151" lon="4.48968">
        <ele>1241</ele>
        <time>2020-07-01T20:49:12Z</time>
      </trkpt>
      <trkpt lat="45.33098" lon="4.49006">
        <ele>1232</ele>
        <time>2020-07-01T20:49:26Z</time>
      </trkpt>
      <trkpt lat="45.33049" lon="4.49021">
        <ele>1226</ele>
        <time>2020-07-01T20:49:38Z</time>
      </trkpt>
      <trkpt lat="45.33031" lon="4.49019">
        <ele>1223</ele>
        <time>2020-07-01T20:49:42Z</time>
      </trkpt>
      <trkpt lat="45.32961" lon="4.48996">
        <ele>1214</ele>
        <time>2020-07-01T20:49:59Z</time>
      </trkpt>
      <trkpt lat="45.32947" lon="4.48989">
        <ele>1213</ele>
        <time>2020-07-01T20:50:02Z</time>
      </trkpt>
      <trkpt lat="45.32919" lon="4.48984">
        <ele>1210</ele>
        <time>2020-07-01T20:50:09Z</time>
      </trkpt>
      <trkpt lat="45.32903" lon="4.48973">
        <ele>1208</ele>
        <time>2020-07-01T20:50:13Z</time>
      </trkpt>
      <trkpt lat="45.3285" lon="4.48887">
        <ele>1206</ele>
        <time>2020-07-01T20:50:32Z</time>
      </trkpt>
      <trkpt lat="45.32809" lon="4.488">
        <ele>1205</ele>
        <time>2020-07-01T20:50:49Z</time>
      </trkpt>
      <trkpt lat="45.32801" lon="4.48772">
        <ele>1204</ele>
        <time>2020-07-01T20:50:54Z</time>
      </trkpt>
      <trkpt lat="45.32794" lon="4.48734">
        <ele>1203</ele>
        <time>2020-07-01T20:51:00Z</time>
      </trkpt>
      <trkpt lat="45.32781" lon="4.48695">
        <ele>1199</ele>
        <time>2020-07-01T20:51:07Z</time>
      </trkpt>
      <trkpt lat="45.32759" lon="4.48606">
        <ele>1190</ele>
        <time>2020-07-01T20:51:23Z</time>
      </trkpt>
      <trkpt lat="45.32757" lon="4.48567">
        <ele>1187</ele>
        <time>2020-07-01T20:51:29Z</time>
      </trkpt>
      <trkpt lat="45.3276" lon="4.48431">
        <ele>1176</ele>
        <time>2020-07-01T20:51:52Z</time>
      </trkpt>
      <trkpt lat="45.32766" lon="4.48394">
        <ele>1176</ele>
        <time>2020-07-01T20:51:58Z</time>
      </trkpt>
      <trkpt lat="45.32766" lon="4.48369">
        <ele>1174</ele>
        <time>2020-07-01T20:52:02Z</time>
      </trkpt>
      <trkpt lat="45.32758" lon="4.48298">
        <ele>1170</ele>
        <time>2020-07-01T20:52:14Z</time>
      </trkpt>
      <trkpt lat="45.32746" lon="4.48264">
        <ele>1166</ele>
        <time>2020-07-01T20:52:20Z</time>
      </trkpt>
      <trkpt lat="45.32685" lon="4.48172">
        <ele>1149</ele>
        <time>2020-07-01T20:52:41Z</time>
      </trkpt>
      <trkpt lat="45.32676" lon="4.48152">
        <ele>1146</ele>
        <time>2020-07-01T20:52:45Z</time>
      </trkpt>
      <trkpt lat="45.3265" lon="4.48142">
        <ele>1143</ele>
        <time>2020-07-01T20:52:51Z</time>
      </trkpt>
      <trkpt lat="45.32616" lon="4.48148">
        <ele>1142</ele>
        <time>2020-07-01T20:52:59Z</time>
      </trkpt>
      <trkpt lat="45.32578" lon="4.48159">
        <ele>1140</ele>
        <time>2020-07-01T20:53:08Z</time>
      </trkpt>
      <trkpt lat="45.32473" lon="4.48211">
        <ele>1144</ele>
        <time>2020-07-01T20:53:34Z</time>
      </trkpt>
      <trkpt lat="45.32441" lon="4.48231">
        <ele>1144</ele>
        <time>2020-07-01T20:53:42Z</time>
      </trkpt>
      <trkpt lat="45.32435" lon="4.48237">
        <ele>1143</ele>
        <time>2020-07-01T20:53:44Z</time>
      </trkpt>
      <trkpt lat="45.32367" lon="4.48318">
        <ele>1143</ele>
        <time>2020-07-01T20:54:04Z</time>
      </trkpt>
      <trkpt lat="45.32315" lon="4.48386">
        <ele>1137</ele>
        <time>2020-07-01T20:54:21Z</time>
      </trkpt>
      <trkpt lat="45.32287" lon="4.48412">
        <ele>1135</ele>
        <time>2020-07-01T20:54:29Z</time>
      </trkpt>
      <trkpt lat="45.32264" lon="4.48426">
        <ele>1136</ele>
        <time>2020-07-01T20:54:35Z</time>
      </trkpt>
      <trkpt lat="45.32262" lon="4.48421">
        <ele>1137</ele>
        <time>2020-07-01T20:54:36Z</time>
      </trkpt>
      <trkpt lat="45.32255" lon="4.48425">
        <ele>1137</ele>
        <time>2020-07-01T20:54:37Z</time>
      </trkpt>
      <trkpt lat="45.32241" lon="4.48441">
        <ele>1138</ele>
        <time>2020-07-01T20:54:42Z</time>
      </trkpt>
      <trkpt lat="45.32208" lon="4.48447">
        <ele>1142</ele>
        <time>2020-07-01T20:54:49Z</time>
      </trkpt>
      <trkpt lat="45.32199" lon="4.48446">
        <ele>1144</ele>
        <time>2020-07-01T20:54:51Z</time>
      </trkpt>
      <trkpt lat="45.32188" lon="4.48436">
        <ele>1147</ele>
        <time>2020-07-01T20:54:54Z</time>
      </trkpt>
      <trkpt lat="45.32162" lon="4.48421">
        <ele>1154</ele>
        <time>2020-07-01T20:55:01Z</time>
      </trkpt>
      <trkpt lat="45.3215" lon="4.48405">
        <ele>1158</ele>
        <time>2020-07-01T20:55:05Z</time>
      </trkpt>
      <trkpt lat="45.32132" lon="4.48372">
        <ele>1169</ele>
        <time>2020-07-01T20:55:12Z</time>
      </trkpt>
      <trkpt lat="45.32127" lon="4.4837">
        <ele>1170</ele>
        <time>2020-07-01T20:55:13Z</time>
      </trkpt>
      <trkpt lat="45.32082" lon="4.48368">
        <ele>1174</ele>
        <time>2020-07-01T20:55:23Z</time>
      </trkpt>
      <trkpt lat="45.32067" lon="4.48364">
        <ele>1176</ele>
        <time>2020-07-01T20:55:27Z</time>
      </trkpt>
      <trkpt lat="45.32051" lon="4.48365">
        <ele>1177</ele>
        <time>2020-07-01T20:55:31Z</time>
      </trkpt>
      <trkpt lat="45.32004" lon="4.48353">
        <ele>1184</ele>
        <time>2020-07-01T20:55:42Z</time>
      </trkpt>
      <trkpt lat="45.31976" lon="4.4834">
        <ele>1192</ele>
        <time>2020-07-01T20:55:49Z</time>
      </trkpt>
      <trkpt lat="45.31969" lon="4.48339">
        <ele>1194</ele>
        <time>2020-07-01T20:55:50Z</time>
      </trkpt>
      <trkpt lat="45.31967" lon="4.48333">
        <ele>1196</ele>
        <time>2020-07-01T20:55:51Z</time>
      </trkpt>
      <trkpt lat="45.31929" lon="4.48314">
        <ele>1206</ele>
        <time>2020-07-01T20:56:01Z</time>
      </trkpt>
      <trkpt lat="45.31889" lon="4.48285">
        <ele>1216</ele>
        <time>2020-07-01T20:56:11Z</time>
      </trkpt>
      <trkpt lat="45.31874" lon="4.48285">
        <ele>1218</ele>
        <time>2020-07-01T20:56:15Z</time>
      </trkpt>
      <trkpt lat="45.31866" lon="4.48274">
        <ele>1220</ele>
        <time>2020-07-01T20:56:17Z</time>
      </trkpt>
      <trkpt lat="45.31851" lon="4.48262">
        <ele>1223</ele>
        <time>2020-07-01T20:56:21Z</time>
      </trkpt>
      <trkpt lat="45.31849" lon="4.48263">
        <ele>1223</ele>
        <time>2020-07-01T20:56:22Z</time>
      </trkpt>
      <trkpt lat="45.31834" lon="4.48253">
        <ele>1225</ele>
        <time>2020-07-01T20:56:26Z</time>
      </trkpt>
      <trkpt lat="45.31819" lon="4.48239">
        <ele>1225</ele>
        <time>2020-07-01T20:56:30Z</time>
      </trkpt>
      <trkpt lat="45.31816" lon="4.48222">
        <ele>1226</ele>
        <time>2020-07-01T20:56:33Z</time>
      </trkpt>
      <trkpt lat="45.31808" lon="4.48206">
        <ele>1226</ele>
        <time>2020-07-01T20:56:36Z</time>
      </trkpt>
      <trkpt lat="45.31789" lon="4.48179">
        <ele>1225</ele>
        <time>2020-07-01T20:56:42Z</time>
      </trkpt>
      <trkpt lat="45.31741" lon="4.48135">
        <ele>1222</ele>
        <time>2020-07-01T20:56:56Z</time>
      </trkpt>
      <trkpt lat="45.31699" lon="4.4812">
        <ele>1220</ele>
        <time>2020-07-01T20:57:06Z</time>
      </trkpt>
      <trkpt lat="45.31664" lon="4.48103">
        <ele>1218</ele>
        <time>2020-07-01T20:57:15Z</time>
      </trkpt>
      <trkpt lat="45.31652" lon="4.48092">
        <ele>1217</ele>
        <time>2020-07-01T20:57:18Z</time>
      </trkpt>
      <trkpt lat="45.31642" lon="4.48072">
        <ele>1216</ele>
        <time>2020-07-01T20:57:22Z</time>
      </trkpt>
      <trkpt lat="45.31618" lon="4.48036">
        <ele>1212</ele>
        <time>2020-07-01T20:57:30Z</time>
      </trkpt>
      <trkpt lat="45.31566" lon="4.47968">
        <ele>1204</ele>
        <time>2020-07-01T20:57:47Z</time>
      </trkpt>
      <trkpt lat="45.31563" lon="4.47966">
        <ele>1204</ele>
        <time>2020-07-01T20:57:47Z</time>
      </trkpt>
      <trkpt lat="45.31559" lon="4.47966">
        <ele>1204</ele>
        <time>2020-07-01T20:57:48Z</time>
      </trkpt>
      <trkpt lat="45.31559" lon="4.47968">
        <ele>1204</ele>
        <time>2020-07-01T20:57:49Z</time>
      </trkpt>
      <trkpt lat="45.31562" lon="4.47964">
        <ele>1204</ele>
        <time>2020-07-01T20:57:50Z</time>
      </trkpt>
      <trkpt lat="45.3156" lon="4.47947">
        <ele>1203</ele>
        <time>2020-07-01T20:57:52Z</time>
      </trkpt>
      <trkpt lat="45.31504" lon="4.4789">
        <ele>1201</ele>
        <time>2020-07-01T20:58:08Z</time>
      </trkpt>
      <trkpt lat="45.31483" lon="4.47883">
        <ele>1201</ele>
        <time>2020-07-01T20:58:13Z</time>
      </trkpt>
      <trkpt lat="45.31461" lon="4.47872">
        <ele>1200</ele>
        <time>2020-07-01T20:58:19Z</time>
      </trkpt>
      <trkpt lat="45.31446" lon="4.47856">
        <ele>1201</ele>
        <time>2020-07-01T20:58:23Z</time>
      </trkpt>
      <trkpt lat="45.31435" lon="4.47852">
        <ele>1200</ele>
        <time>2020-07-01T20:58:26Z</time>
      </trkpt>
      <trkpt lat="45.31416" lon="4.47852">
        <ele>1199</ele>
        <time>2020-07-01T20:58:30Z</time>
      </trkpt>
      <trkpt lat="45.31388" lon="4.47831">
        <ele>1198</ele>
        <time>2020-07-01T20:58:38Z</time>
      </trkpt>
      <trkpt lat="45.31368" lon="4.47823">
        <ele>1198</ele>
        <time>2020-07-01T20:58:43Z</time>
      </trkpt>
      <trkpt lat="45.31358" lon="4.47822">
        <ele>1197</ele>
        <time>2020-07-01T20:58:45Z</time>
      </trkpt>
      <trkpt lat="45.31337" lon="4.4781">
        <ele>1197</ele>
        <time>2020-07-01T20:58:50Z</time>
      </trkpt>
      <trkpt lat="45.31216" lon="4.47772">
        <ele>1198</ele>
        <time>2020-07-01T20:59:19Z</time>
      </trkpt>
      <trkpt lat="45.31162" lon="4.47751">
        <ele>1197</ele>
        <time>2020-07-01T20:59:32Z</time>
      </trkpt>
      <trkpt lat="45.31082" lon="4.47731">
        <ele>1193</ele>
        <time>2020-07-01T20:59:51Z</time>
      </trkpt>
      <trkpt lat="45.30966" lon="4.47742">
        <ele>1196</ele>
        <time>2020-07-01T21:00:18Z</time>
      </trkpt>
      <trkpt lat="45.30929" lon="4.47751">
        <ele>1196</ele>
        <time>2020-07-01T21:00:27Z</time>
      </trkpt>
      <trkpt lat="45.30906" lon="4.47747">
        <ele>1195</ele>
        <time>2020-07-01T21:00:33Z</time>
      </trkpt>
      <trkpt lat="45.30871" lon="4.47729">
        <ele>1192</ele>
        <time>2020-07-01T21:00:41Z</time>
      </trkpt>
      <trkpt lat="45.30824" lon="4.4769">
        <ele>1188</ele>
        <time>2020-07-01T21:00:54Z</time>
      </trkpt>
      <trkpt lat="45.30813" lon="4.47692">
        <ele>1186</ele>
        <time>2020-07-01T21:00:57Z</time>
      </trkpt>
      <trkpt lat="45.308" lon="4.47705">
        <ele>1184</ele>
        <time>2020-07-01T21:01:00Z</time>
      </trkpt>
      <trkpt lat="45.30783" lon="4.47711">
        <ele>1182</ele>
        <time>2020-07-01T21:01:04Z</time>
      </trkpt>
      <trkpt lat="45.30771" lon="4.47706">
        <ele>1181</ele>
        <time>2020-07-01T21:01:07Z</time>
      </trkpt>
      <trkpt lat="45.30763" lon="4.47695">
        <ele>1180</ele>
        <time>2020-07-01T21:01:10Z</time>
      </trkpt>
      <trkpt lat="45.30731" lon="4.4763">
        <ele>1179</ele>
        <time>2020-07-01T21:01:23Z</time>
      </trkpt>
      <trkpt lat="45.3072" lon="4.47639">
        <ele>1178</ele>
        <time>2020-07-01T21:01:26Z</time>
      </trkpt>
      <trkpt lat="45.30711" lon="4.47642">
        <ele>1178</ele>
        <time>2020-07-01T21:01:28Z</time>
      </trkpt>
      <trkpt lat="45.30703" lon="4.47641">
        <ele>1177</ele>
        <time>2020-07-01T21:01:30Z</time>
      </trkpt>
      <trkpt lat="45.30698" lon="4.47633">
        <ele>1177</ele>
        <time>2020-07-01T21:01:32Z</time>
      </trkpt>
      <trkpt lat="45.30691" lon="4.47562">
        <ele>1177</ele>
        <time>2020-07-01T21:01:43Z</time>
      </trkpt>
      <trkpt lat="45.30696" lon="4.47499">
        <ele>1178</ele>
        <time>2020-07-01T21:01:54Z</time>
      </trkpt>
      <trkpt lat="45.30719" lon="4.47438">
        <ele>1181</ele>
        <time>2020-07-01T21:02:05Z</time>
      </trkpt>
      <trkpt lat="45.30773" lon="4.47321">
        <ele>1184</ele>
        <time>2020-07-01T21:02:28Z</time>
      </trkpt>
      <trkpt lat="45.3082" lon="4.47247">
        <ele>1185</ele>
        <time>2020-07-01T21:02:45Z</time>
      </trkpt>
      <trkpt lat="45.30874" lon="4.47178">
        <ele>1184</ele>
        <time>2020-07-01T21:03:02Z</time>
      </trkpt>
      <trkpt lat="45.30962" lon="4.47099">
        <ele>1189</ele>
        <time>2020-07-01T21:03:26Z</time>
      </trkpt>
      <trkpt lat="45.31041" lon="4.47015">
        <ele>1184</ele>
        <time>2020-07-01T21:03:49Z</time>
      </trkpt>
      <trkpt lat="45.31121" lon="4.4694">
        <ele>1177</ele>
        <time>2020-07-01T21:04:11Z</time>
      </trkpt>
      <trkpt lat="45.31244" lon="4.46855">
        <ele>1168</ele>
        <time>2020-07-01T21:04:43Z</time>
      </trkpt>
      <trkpt lat="45.31262" lon="4.46834">
        <ele>1166</ele>
        <time>2020-07-01T21:04:49Z</time>
      </trkpt>
      <trkpt lat="45.31279" lon="4.46808">
        <ele>1163</ele>
        <time>2020-07-01T21:04:54Z</time>
      </trkpt>
      <trkpt lat="45.31327" lon="4.46708">
        <ele>1156</ele>
        <time>2020-07-01T21:05:14Z</time>
      </trkpt>
      <trkpt lat="45.31336" lon="4.46696">
        <ele>1155</ele>
        <time>2020-07-01T21:05:17Z</time>
      </trkpt>
      <trkpt lat="45.31407" lon="4.46631">
        <ele>1152</ele>
        <time>2020-07-01T21:05:37Z</time>
      </trkpt>
      <trkpt lat="45.31472" lon="4.46566">
        <ele>1153</ele>
        <time>2020-07-01T21:05:55Z</time>
      </trkpt>
      <trkpt lat="45.31524" lon="4.46504">
        <ele>1152</ele>
        <time>2020-07-01T21:06:11Z</time>
      </trkpt>
      <trkpt lat="45.31527" lon="4.46497">
        <ele>1152</ele>
        <time>2020-07-01T21:06:13Z</time>
      </trkpt>
      <trkpt lat="45.31528" lon="4.46478">
        <ele>1152</ele>
        <time>2020-07-01T21:06:16Z</time>
      </trkpt>
      <trkpt lat="45.31521" lon="4.46462">
        <ele>1152</ele>
        <time>2020-07-01T21:06:19Z</time>
      </trkpt>
      <trkpt lat="45.31485" lon="4.46423">
        <ele>1149</ele>
        <time>2020-07-01T21:06:29Z</time>
      </trkpt>
      <trkpt lat="45.31459" lon="4.46405">
        <ele>1147</ele>
        <time>2020-07-01T21:06:36Z</time>
      </trkpt>
      <trkpt lat="45.31455" lon="4.464">
        <ele>1147</ele>
        <time>2020-07-01T21:06:37Z</time>
      </trkpt>
      <trkpt lat="45.31448" lon="4.4638">
        <ele>1147</ele>
        <time>2020-07-01T21:06:41Z</time>
      </trkpt>
      <trkpt lat="45.31438" lon="4.46331">
        <ele>1149</ele>
        <time>2020-07-01T21:06:50Z</time>
      </trkpt>
      <trkpt lat="45.31417" lon="4.46286">
        <ele>1149</ele>
        <time>2020-07-01T21:06:58Z</time>
      </trkpt>
      <trkpt lat="45.31413" lon="4.46268">
        <ele>1150</ele>
        <time>2020-07-01T21:07:01Z</time>
      </trkpt>
      <trkpt lat="45.31413" lon="4.46186">
        <ele>1154</ele>
        <time>2020-07-01T21:07:15Z</time>
      </trkpt>
      <trkpt lat="45.31404" lon="4.46052">
        <ele>1152</ele>
        <time>2020-07-01T21:07:37Z</time>
      </trkpt>
      <trkpt lat="45.31428" lon="4.45924">
        <ele>1153</ele>
        <time>2020-07-01T21:07:59Z</time>
      </trkpt>
      <trkpt lat="45.31425" lon="4.45808">
        <ele>1150</ele>
        <time>2020-07-01T21:08:18Z</time>
      </trkpt>
      <trkpt lat="45.31419" lon="4.45765">
        <ele>1151</ele>
        <time>2020-07-01T21:08:25Z</time>
      </trkpt>
      <trkpt lat="45.31426" lon="4.45735">
        <ele>1152</ele>
        <time>2020-07-01T21:08:30Z</time>
      </trkpt>
      <trkpt lat="45.31423" lon="4.45698">
        <ele>1154</ele>
        <time>2020-07-01T21:08:36Z</time>
      </trkpt>
      <trkpt lat="45.31432" lon="4.45638">
        <ele>1157</ele>
        <time>2020-07-01T21:08:46Z</time>
      </trkpt>
      <trkpt lat="45.31464" lon="4.45562">
        <ele>1159</ele>
        <time>2020-07-01T21:09:01Z</time>
      </trkpt>
      <trkpt lat="45.31472" lon="4.45511">
        <ele>1162</ele>
        <time>2020-07-01T21:09:10Z</time>
      </trkpt>
      <trkpt lat="45.31479" lon="4.45486">
        <ele>1162</ele>
        <time>2020-07-01T21:09:14Z</time>
      </trkpt>
      <trkpt lat="45.31519" lon="4.4543">
        <ele>1158</ele>
        <time>2020-07-01T21:09:27Z</time>
      </trkpt>
      <trkpt lat="45.31525" lon="4.45404">
        <ele>1158</ele>
        <time>2020-07-01T21:09:32Z</time>
      </trkpt>
      <trkpt lat="45.31536" lon="4.45382">
        <ele>1157</ele>
        <time>2020-07-01T21:09:36Z</time>
      </trkpt>
      <trkpt lat="45.31582" lon="4.45323">
        <ele>1155</ele>
        <time>2020-07-01T21:09:51Z</time>
      </trkpt>
      <trkpt lat="45.31594" lon="4.45281">
        <ele>1155</ele>
        <time>2020-07-01T21:09:58Z</time>
      </trkpt>
      <trkpt lat="45.31602" lon="4.45262">
        <ele>1155</ele>
        <time>2020-07-01T21:10:02Z</time>
      </trkpt>
      <trkpt lat="45.3161" lon="4.45253">
        <ele>1154</ele>
        <time>2020-07-01T21:10:04Z</time>
      </trkpt>
      <trkpt lat="45.31621" lon="4.45227">
        <ele>1155</ele>
        <time>2020-07-01T21:10:09Z</time>
      </trkpt>
      <trkpt lat="45.31669" lon="4.45134">
        <ele>1155</ele>
        <time>2020-07-01T21:10:28Z</time>
      </trkpt>
      <trkpt lat="45.31667" lon="4.45123">
        <ele>1156</ele>
        <time>2020-07-01T21:10:30Z</time>
      </trkpt>
      <trkpt lat="45.31668" lon="4.45111">
        <ele>1157</ele>
        <time>2020-07-01T21:10:32Z</time>
      </trkpt>
      <trkpt lat="45.31676" lon="4.45093">
        <ele>1157</ele>
        <time>2020-07-01T21:10:35Z</time>
      </trkpt>
      <trkpt lat="45.31678" lon="4.45076">
        <ele>1158</ele>
        <time>2020-07-01T21:10:38Z</time>
      </trkpt>
      <trkpt lat="45.31676" lon="4.45071">
        <ele>1158</ele>
        <time>2020-07-01T21:10:39Z</time>
      </trkpt>
      <trkpt lat="45.31669" lon="4.45071">
        <ele>1159</ele>
        <time>2020-07-01T21:10:41Z</time>
      </trkpt>
      <trkpt lat="45.31637" lon="4.45101">
        <ele>1163</ele>
        <time>2020-07-01T21:10:50Z</time>
      </trkpt>
      <trkpt lat="45.31619" lon="4.45089">
        <ele>1167</ele>
        <time>2020-07-01T21:10:54Z</time>
      </trkpt>
      <trkpt lat="45.31576" lon="4.45074">
        <ele>1175</ele>
        <time>2020-07-01T21:11:05Z</time>
      </trkpt>
      <trkpt lat="45.31567" lon="4.45066">
        <ele>1176</ele>
        <time>2020-07-01T21:11:07Z</time>
      </trkpt>
      <trkpt lat="45.31548" lon="4.45038">
        <ele>1180</ele>
        <time>2020-07-01T21:11:13Z</time>
      </trkpt>
      <trkpt lat="45.31545" lon="4.45028">
        <ele>1180</ele>
        <time>2020-07-01T21:11:15Z</time>
      </trkpt>
      <trkpt lat="45.31531" lon="4.45015">
        <ele>1182</ele>
        <time>2020-07-01T21:11:19Z</time>
      </trkpt>
      <trkpt lat="45.31518" lon="4.4501">
        <ele>1184</ele>
        <time>2020-07-01T21:11:22Z</time>
      </trkpt>
      <trkpt lat="45.31507" lon="4.44992">
        <ele>1186</ele>
        <time>2020-07-01T21:11:26Z</time>
      </trkpt>
      <trkpt lat="45.31503" lon="4.44966">
        <ele>1189</ele>
        <time>2020-07-01T21:11:31Z</time>
      </trkpt>
      <trkpt lat="45.31497" lon="4.44955">
        <ele>1190</ele>
        <time>2020-07-01T21:11:33Z</time>
      </trkpt>
      <trkpt lat="45.3149" lon="4.44948">
        <ele>1192</ele>
        <time>2020-07-01T21:11:35Z</time>
      </trkpt>
      <trkpt lat="45.31484" lon="4.4495">
        <ele>1192</ele>
        <time>2020-07-01T21:11:36Z</time>
      </trkpt>
      <trkpt lat="45.31467" lon="4.44937">
        <ele>1194</ele>
        <time>2020-07-01T21:11:41Z</time>
      </trkpt>
      <trkpt lat="45.3146" lon="4.44923">
        <ele>1196</ele>
        <time>2020-07-01T21:11:44Z</time>
      </trkpt>
      <trkpt lat="45.3145" lon="4.44918">
        <ele>1198</ele>
        <time>2020-07-01T21:11:46Z</time>
      </trkpt>
      <trkpt lat="45.31435" lon="4.44885">
        <ele>1203</ele>
        <time>2020-07-01T21:11:53Z</time>
      </trkpt>
      <trkpt lat="45.31426" lon="4.44874">
        <ele>1205</ele>
        <time>2020-07-01T21:11:55Z</time>
      </trkpt>
      <trkpt lat="45.31416" lon="4.44865">
        <ele>1207</ele>
        <time>2020-07-01T21:11:58Z</time>
      </trkpt>
      <trkpt lat="45.31386" lon="4.44851">
        <ele>1209</ele>
        <time>2020-07-01T21:12:05Z</time>
      </trkpt>
      <trkpt lat="45.31364" lon="4.44835">
        <ele>1213</ele>
        <time>2020-07-01T21:12:11Z</time>
      </trkpt>
      <trkpt lat="45.31342" lon="4.44825">
        <ele>1215</ele>
        <time>2020-07-01T21:12:17Z</time>
      </trkpt>
      <trkpt lat="45.31315" lon="4.44817">
        <ele>1215</ele>
        <time>2020-07-01T21:12:23Z</time>
      </trkpt>
      <trkpt lat="45.31283" lon="4.44797">
        <ele>1214</ele>
        <time>2020-07-01T21:12:31Z</time>
      </trkpt>
      <trkpt lat="45.3125" lon="4.4478">
        <ele>1213</ele>
        <time>2020-07-01T21:12:39Z</time>
      </trkpt>
      <trkpt lat="45.31218" lon="4.44771">
        <ele>1214</ele>
        <time>2020-07-01T21:12:47Z</time>
      </trkpt>
      <trkpt lat="45.31158" lon="4.44748">
        <ele>1215</ele>
        <time>2020-07-01T21:13:02Z</time>
      </trkpt>
      <trkpt lat="45.31094" lon="4.44715">
        <ele>1215</ele>
        <time>2020-07-01T21:13:17Z</time>
      </trkpt>
      <trkpt lat="45.31066" lon="4.44693">
        <ele>1215</ele>
        <time>2020-07-01T21:13:25Z</time>
      </trkpt>
      <trkpt lat="45.31041" lon="4.44679">
        <ele>1216</ele>
        <time>2020-07-01T21:13:31Z</time>
      </trkpt>
      <trkpt lat="45.31008" lon="4.44677">
        <ele>1217</ele>
        <time>2020-07-01T21:13:39Z</time>
      </trkpt>
      <trkpt lat="45.30929" lon="4.44635">
        <ele>1224</ele>
        <time>2020-07-01T21:13:59Z</time>
      </trkpt>
      <trkpt lat="45.30887" lon="4.44617">
        <ele>1228</ele>
        <time>2020-07-01T21:14:09Z</time>
      </trkpt>
      <trkpt lat="45.30865" lon="4.44605">
        <ele>1230</ele>
        <time>2020-07-01T21:14:14Z</time>
      </trkpt>
      <trkpt lat="45.3086" lon="4.44605">
        <ele>1230</ele>
        <time>2020-07-01T21:14:16Z</time>
      </trkpt>
      <trkpt lat="45.30838" lon="4.44596">
        <ele>1232</ele>
        <time>2020-07-01T21:14:21Z</time>
      </trkpt>
      <trkpt lat="45.30826" lon="4.44587">
        <ele>1233</ele>
        <time>2020-07-01T21:14:24Z</time>
      </trkpt>
      <trkpt lat="45.30711" lon="4.44536">
        <ele>1239</ele>
        <time>2020-07-01T21:14:52Z</time>
      </trkpt>
      <trkpt lat="45.3068" lon="4.44529">
        <ele>1239</ele>
        <time>2020-07-01T21:15:00Z</time>
      </trkpt>
      <trkpt lat="45.30622" lon="4.44529">
        <ele>1240</ele>
        <time>2020-07-01T21:15:13Z</time>
      </trkpt>
      <trkpt lat="45.30598" lon="4.44523">
        <ele>1240</ele>
        <time>2020-07-01T21:15:19Z</time>
      </trkpt>
      <trkpt lat="45.30565" lon="4.44521">
        <ele>1240</ele>
        <time>2020-07-01T21:15:26Z</time>
      </trkpt>
      <trkpt lat="45.30542" lon="4.44516">
        <ele>1239</ele>
        <time>2020-07-01T21:15:32Z</time>
      </trkpt>
      <trkpt lat="45.30531" lon="4.44498">
        <ele>1238</ele>
        <time>2020-07-01T21:15:36Z</time>
      </trkpt>
      <trkpt lat="45.30467" lon="4.44432">
        <ele>1229</ele>
        <time>2020-07-01T21:15:54Z</time>
      </trkpt>
      <trkpt lat="45.30342" lon="4.44351">
        <ele>1217</ele>
        <time>2020-07-01T21:16:26Z</time>
      </trkpt>
      <trkpt lat="45.30299" lon="4.44314">
        <ele>1213</ele>
        <time>2020-07-01T21:16:38Z</time>
      </trkpt>
      <trkpt lat="45.30254" lon="4.44267">
        <ele>1210</ele>
        <time>2020-07-01T21:16:51Z</time>
      </trkpt>
      <trkpt lat="45.30244" lon="4.44251">
        <ele>1209</ele>
        <time>2020-07-01T21:16:55Z</time>
      </trkpt>
      <trkpt lat="45.3022" lon="4.44195">
        <ele>1206</ele>
        <time>2020-07-01T21:17:05Z</time>
      </trkpt>
      <trkpt lat="45.30223" lon="4.4412">
        <ele>1199</ele>
        <time>2020-07-01T21:17:18Z</time>
      </trkpt>
      <trkpt lat="45.30243" lon="4.44013">
        <ele>1189</ele>
        <time>2020-07-01T21:17:36Z</time>
      </trkpt>
      <trkpt lat="45.30269" lon="4.43986">
        <ele>1185</ele>
        <time>2020-07-01T21:17:43Z</time>
      </trkpt>
      <trkpt lat="45.30265" lon="4.4394">
        <ele>1181</ele>
        <time>2020-07-01T21:17:51Z</time>
      </trkpt>
      <trkpt lat="45.30286" lon="4.43912">
        <ele>1176</ele>
        <time>2020-07-01T21:17:58Z</time>
      </trkpt>
      <trkpt lat="45.30283" lon="4.43872">
        <ele>1170</ele>
        <time>2020-07-01T21:18:04Z</time>
      </trkpt>
      <trkpt lat="45.3032" lon="4.43836">
        <ele>1161</ele>
        <time>2020-07-01T21:18:15Z</time>
      </trkpt>
      <trkpt lat="45.30316" lon="4.43756">
        <ele>1150</ele>
        <time>2020-07-01T21:18:28Z</time>
      </trkpt>
      <trkpt lat="45.30308" lon="4.43677">
        <ele>1139</ele>
        <time>2020-07-01T21:18:41Z</time>
      </trkpt>
      <trkpt lat="45.30323" lon="4.4366">
        <ele>1136</ele>
        <time>2020-07-01T21:18:46Z</time>
      </trkpt>
      <trkpt lat="45.30328" lon="4.43651">
        <ele>1135</ele>
        <time>2020-07-01T21:18:48Z</time>
      </trkpt>
      <trkpt lat="45.30326" lon="4.43631">
        <ele>1133</ele>
        <time>2020-07-01T21:18:51Z</time>
      </trkpt>
      <trkpt lat="45.30319" lon="4.43613">
        <ele>1131</ele>
        <time>2020-07-01T21:18:54Z</time>
      </trkpt>
      <trkpt lat="45.30321" lon="4.436">
        <ele>1129</ele>
        <time>2020-07-01T21:18:56Z</time>
      </trkpt>
      <trkpt lat="45.30328" lon="4.43587">
        <ele>1128</ele>
        <time>2020-07-01T21:18:59Z</time>
      </trkpt>
      <trkpt lat="45.30329" lon="4.43563">
        <ele>1124</ele>
        <time>2020-07-01T21:19:03Z</time>
      </trkpt>
      <trkpt lat="45.30319" lon="4.43529">
        <ele>1120</ele>
        <time>2020-07-01T21:19:09Z</time>
      </trkpt>
      <trkpt lat="45.30298" lon="4.43488">
        <ele>1116</ele>
        <time>2020-07-01T21:19:17Z</time>
      </trkpt>
      <trkpt lat="45.30299" lon="4.43461">
        <ele>1112</ele>
        <time>2020-07-01T21:19:22Z</time>
      </trkpt>
      <trkpt lat="45.30357" lon="4.43411">
        <ele>1105</ele>
        <time>2020-07-01T21:19:38Z</time>
      </trkpt>
      <trkpt lat="45.30343" lon="4.43365">
        <ele>1099</ele>
        <time>2020-07-01T21:19:46Z</time>
      </trkpt>
      <trkpt lat="45.30313" lon="4.43298">
        <ele>1091</ele>
        <time>2020-07-01T21:19:59Z</time>
      </trkpt>
      <trkpt lat="45.30243" lon="4.43188">
        <ele>1083</ele>
        <time>2020-07-01T21:20:23Z</time>
      </trkpt>
      <trkpt lat="45.30223" lon="4.43162">
        <ele>1083</ele>
        <time>2020-07-01T21:20:30Z</time>
      </trkpt>
      <trkpt lat="45.30223" lon="4.43157">
        <ele>1082</ele>
        <time>2020-07-01T21:20:31Z</time>
      </trkpt>
      <trkpt lat="45.30229" lon="4.4315">
        <ele>1082</ele>
        <time>2020-07-01T21:20:32Z</time>
      </trkpt>
      <trkpt lat="45.30304" lon="4.43103">
        <ele>1075</ele>
        <time>2020-07-01T21:20:51Z</time>
      </trkpt>
      <trkpt lat="45.30312" lon="4.43096">
        <ele>1074</ele>
        <time>2020-07-01T21:20:54Z</time>
      </trkpt>
      <trkpt lat="45.30331" lon="4.43069">
        <ele>1071</ele>
        <time>2020-07-01T21:21:00Z</time>
      </trkpt>
      <trkpt lat="45.30389" lon="4.4296">
        <ele>1065</ele>
        <time>2020-07-01T21:21:22Z</time>
      </trkpt>
      <trkpt lat="45.30488" lon="4.42865">
        <ele>1060</ele>
        <time>2020-07-01T21:21:50Z</time>
      </trkpt>
      <trkpt lat="45.30645" lon="4.42675">
        <ele>1044</ele>
        <time>2020-07-01T21:22:38Z</time>
      </trkpt>
      <trkpt lat="45.30673" lon="4.42653">
        <ele>1044</ele>
        <time>2020-07-01T21:22:46Z</time>
      </trkpt>
      <trkpt lat="45.3069" lon="4.42645">
        <ele>1041</ele>
        <time>2020-07-01T21:22:50Z</time>
      </trkpt>
      <trkpt lat="45.30719" lon="4.42642">
        <ele>1037</ele>
        <time>2020-07-01T21:22:57Z</time>
      </trkpt>
      <trkpt lat="45.30762" lon="4.42652">
        <ele>1034</ele>
        <time>2020-07-01T21:23:07Z</time>
      </trkpt>
      <trkpt lat="45.30912" lon="4.42746">
        <ele>1024</ele>
        <time>2020-07-01T21:23:45Z</time>
      </trkpt>
      <trkpt lat="45.30999" lon="4.42793">
        <ele>1015</ele>
        <time>2020-07-01T21:24:07Z</time>
      </trkpt>
      <trkpt lat="45.31025" lon="4.42818">
        <ele>1015</ele>
        <time>2020-07-01T21:24:14Z</time>
      </trkpt>
      <trkpt lat="45.31043" lon="4.42821">
        <ele>1013</ele>
        <time>2020-07-01T21:24:19Z</time>
      </trkpt>
      <trkpt lat="45.31061" lon="4.42815">
        <ele>1009</ele>
        <time>2020-07-01T21:24:23Z</time>
      </trkpt>
      <trkpt lat="45.31081" lon="4.42812">
        <ele>1006</ele>
        <time>2020-07-01T21:24:28Z</time>
      </trkpt>
      <trkpt lat="45.31121" lon="4.42814">
        <ele>1003</ele>
        <time>2020-07-01T21:24:37Z</time>
      </trkpt>
      <trkpt lat="45.31174" lon="4.42832">
        <ele>1001</ele>
        <time>2020-07-01T21:24:50Z</time>
      </trkpt>
      <trkpt lat="45.31179" lon="4.42831">
        <ele>1001</ele>
        <time>2020-07-01T21:24:51Z</time>
      </trkpt>
      <trkpt lat="45.31192" lon="4.42816">
        <ele>999</ele>
        <time>2020-07-01T21:24:55Z</time>
      </trkpt>
      <trkpt lat="45.3121" lon="4.42806">
        <ele>997</ele>
        <time>2020-07-01T21:24:59Z</time>
      </trkpt>
      <trkpt lat="45.31258" lon="4.42769">
        <ele>995</ele>
        <time>2020-07-01T21:25:12Z</time>
      </trkpt>
      <trkpt lat="45.31268" lon="4.42752">
        <ele>996</ele>
        <time>2020-07-01T21:25:16Z</time>
      </trkpt>
      <trkpt lat="45.31302" lon="4.42677">
        <ele>1002</ele>
        <time>2020-07-01T21:25:30Z</time>
      </trkpt>
      <trkpt lat="45.31306" lon="4.42673">
        <ele>1003</ele>
        <time>2020-07-01T21:25:31Z</time>
      </trkpt>
      <trkpt lat="45.31319" lon="4.42674">
        <ele>1004</ele>
        <time>2020-07-01T21:25:35Z</time>
      </trkpt>
      <trkpt lat="45.31354" lon="4.42685">
        <ele>1007</ele>
        <time>2020-07-01T21:25:43Z</time>
      </trkpt>
      <trkpt lat="45.31356" lon="4.42684">
        <ele>1007</ele>
        <time>2020-07-01T21:25:43Z</time>
      </trkpt>
      <trkpt lat="45.31353" lon="4.4268">
        <ele>1007</ele>
        <time>2020-07-01T21:25:44Z</time>
      </trkpt>
      <trkpt lat="45.31382" lon="4.42683">
        <ele>1010</ele>
        <time>2020-07-01T21:25:51Z</time>
      </trkpt>
      <trkpt lat="45.31393" lon="4.4268">
        <ele>1011</ele>
        <time>2020-07-01T21:25:54Z</time>
      </trkpt>
      <trkpt lat="45.31445" lon="4.42683">
        <ele>1015</ele>
        <time>2020-07-01T21:26:06Z</time>
      </trkpt>
      <trkpt lat="45.31467" lon="4.42687">
        <ele>1016</ele>
        <time>2020-07-01T21:26:11Z</time>
      </trkpt>
      <trkpt lat="45.31509" lon="4.42703">
        <ele>1021</ele>
        <time>2020-07-01T21:26:21Z</time>
      </trkpt>
      <trkpt lat="45.31528" lon="4.42714">
        <ele>1023</ele>
        <time>2020-07-01T21:26:26Z</time>
      </trkpt>
      <trkpt lat="45.31545" lon="4.42731">
        <ele>1025</ele>
        <time>2020-07-01T21:26:31Z</time>
      </trkpt>
      <trkpt lat="45.31563" lon="4.42738">
        <ele>1027</ele>
        <time>2020-07-01T21:26:35Z</time>
      </trkpt>
      <trkpt lat="45.316" lon="4.42729">
        <ele>1027</ele>
        <time>2020-07-01T21:26:44Z</time>
      </trkpt>
      <trkpt lat="45.31629" lon="4.42744">
        <ele>1029</ele>
        <time>2020-07-01T21:26:51Z</time>
      </trkpt>
      <trkpt lat="45.3168" lon="4.4289">
        <ele>1037</ele>
        <time>2020-07-01T21:27:18Z</time>
      </trkpt>
      <trkpt lat="45.31696" lon="4.42942">
        <ele>1038</ele>
        <time>2020-07-01T21:27:27Z</time>
      </trkpt>
      <trkpt lat="45.31696" lon="4.42987">
        <ele>1039</ele>
        <time>2020-07-01T21:27:35Z</time>
      </trkpt>
      <trkpt lat="45.31702" lon="4.431">
        <ele>1045</ele>
        <time>2020-07-01T21:27:53Z</time>
      </trkpt>
      <trkpt lat="45.31714" lon="4.43206">
        <ele>1055</ele>
        <time>2020-07-01T21:28:11Z</time>
      </trkpt>
      <trkpt lat="45.31714" lon="4.43245">
        <ele>1059</ele>
        <time>2020-07-01T21:28:17Z</time>
      </trkpt>
      <trkpt lat="45.31704" lon="4.43309">
        <ele>1063</ele>
        <time>2020-07-01T21:28:28Z</time>
      </trkpt>
      <trkpt lat="45.31698" lon="4.43418">
        <ele>1069</ele>
        <time>2020-07-01T21:28:46Z</time>
      </trkpt>
      <trkpt lat="45.31707" lon="4.43477">
        <ele>1072</ele>
        <time>2020-07-01T21:28:56Z</time>
      </trkpt>
      <trkpt lat="45.31719" lon="4.43526">
        <ele>1077</ele>
        <time>2020-07-01T21:29:05Z</time>
      </trkpt>
      <trkpt lat="45.31713" lon="4.4359">
        <ele>1081</ele>
        <time>2020-07-01T21:29:15Z</time>
      </trkpt>
      <trkpt lat="45.31719" lon="4.43614">
        <ele>1083</ele>
        <time>2020-07-01T21:29:19Z</time>
      </trkpt>
      <trkpt lat="45.31759" lon="4.43597">
        <ele>1088</ele>
        <time>2020-07-01T21:29:29Z</time>
      </trkpt>
      <trkpt lat="45.31784" lon="4.43572">
        <ele>1089</ele>
        <time>2020-07-01T21:29:36Z</time>
      </trkpt>
      <trkpt lat="45.31805" lon="4.43559">
        <ele>1089</ele>
        <time>2020-07-01T21:29:42Z</time>
      </trkpt>
      <trkpt lat="45.31813" lon="4.43569">
        <ele>1091</ele>
        <time>2020-07-01T21:29:44Z</time>
      </trkpt>
      <trkpt lat="45.31834" lon="4.4362">
        <ele>1095</ele>
        <time>2020-07-01T21:29:54Z</time>
      </trkpt>
      <trkpt lat="45.31867" lon="4.43642">
        <ele>1092</ele>
        <time>2020-07-01T21:30:02Z</time>
      </trkpt>
      <trkpt lat="45.31877" lon="4.43646">
        <ele>1091</ele>
        <time>2020-07-01T21:30:05Z</time>
      </trkpt>
      <trkpt lat="45.31925" lon="4.4364">
        <ele>1087</ele>
        <time>2020-07-01T21:30:16Z</time>
      </trkpt>
      <trkpt lat="45.31937" lon="4.43633">
        <ele>1086</ele>
        <time>2020-07-01T21:30:19Z</time>
      </trkpt>
      <trkpt lat="45.3195" lon="4.43629">
        <ele>1085</ele>
        <time>2020-07-01T21:30:22Z</time>
      </trkpt>
      <trkpt lat="45.3196" lon="4.43632">
        <ele>1083</ele>
        <time>2020-07-01T21:30:24Z</time>
      </trkpt>
      <trkpt lat="45.32015" lon="4.43603">
        <ele>1080</ele>
        <time>2020-07-01T21:30:38Z</time>
      </trkpt>
      <trkpt lat="45.32043" lon="4.43596">
        <ele>1078</ele>
        <time>2020-07-01T21:30:45Z</time>
      </trkpt>
      <trkpt lat="45.32067" lon="4.43594">
        <ele>1075</ele>
        <time>2020-07-01T21:30:50Z</time>
      </trkpt>
      <trkpt lat="45.32098" lon="4.43622">
        <ele>1069</ele>
        <time>2020-07-01T21:30:59Z</time>
      </trkpt>
      <trkpt lat="45.32124" lon="4.43658">
        <ele>1063</ele>
        <time>2020-07-01T21:31:07Z</time>
      </trkpt>
      <trkpt lat="45.32138" lon="4.43661">
        <ele>1062</ele>
        <time>2020-07-01T21:31:11Z</time>
      </trkpt>
      <trkpt lat="45.3214" lon="4.43669">
        <ele>1061</ele>
        <time>2020-07-01T21:31:12Z</time>
      </trkpt>
      <trkpt lat="45.32145" lon="4.43674">
        <ele>1061</ele>
        <time>2020-07-01T21:31:14Z</time>
      </trkpt>
      <trkpt lat="45.32153" lon="4.4367">
        <ele>1061</ele>
        <time>2020-07-01T21:31:16Z</time>
      </trkpt>
      <trkpt lat="45.3216" lon="4.43659">
        <ele>1061</ele>
        <time>2020-07-01T21:31:18Z</time>
      </trkpt>
      <trkpt lat="45.32176" lon="4.43651">
        <ele>1060</ele>
        <time>2020-07-01T21:31:22Z</time>
      </trkpt>
      <trkpt lat="45.32189" lon="4.43639">
        <ele>1059</ele>
        <time>2020-07-01T21:31:26Z</time>
      </trkpt>
      <trkpt lat="45.32202" lon="4.43639">
        <ele>1057</ele>
        <time>2020-07-01T21:31:29Z</time>
      </trkpt>
      <trkpt lat="45.32206" lon="4.43637">
        <ele>1056</ele>
        <time>2020-07-01T21:31:30Z</time>
      </trkpt>
      <trkpt lat="45.32219" lon="4.43616">
        <ele>1055</ele>
        <time>2020-07-01T21:31:34Z</time>
      </trkpt>
      <trkpt lat="45.32244" lon="4.43545">
        <ele>1050</ele>
        <time>2020-07-01T21:31:47Z</time>
      </trkpt>
      <trkpt lat="45.32255" lon="4.4353">
        <ele>1047</ele>
        <time>2020-07-01T21:31:51Z</time>
      </trkpt>
      <trkpt lat="45.32278" lon="4.43507">
        <ele>1040</ele>
        <time>2020-07-01T21:31:57Z</time>
      </trkpt>
      <trkpt lat="45.3229" lon="4.435">
        <ele>1036</ele>
        <time>2020-07-01T21:32:00Z</time>
      </trkpt>
      <trkpt lat="45.32307" lon="4.43479">
        <ele>1033</ele>
        <time>2020-07-01T21:32:06Z</time>
      </trkpt>
      <trkpt lat="45.32323" lon="4.43468">
        <ele>1029</ele>
        <time>2020-07-01T21:32:10Z</time>
      </trkpt>
      <trkpt lat="45.32336" lon="4.43465">
        <ele>1026</ele>
        <time>2020-07-01T21:32:13Z</time>
      </trkpt>
      <trkpt lat="45.32359" lon="4.43443">
        <ele>1022</ele>
        <time>2020-07-01T21:32:19Z</time>
      </trkpt>
      <trkpt lat="45.32377" lon="4.43421">
        <ele>1020</ele>
        <time>2020-07-01T21:32:25Z</time>
      </trkpt>
      <trkpt lat="45.32411" lon="4.43391">
        <ele>1013</ele>
        <time>2020-07-01T21:32:34Z</time>
      </trkpt>
      <trkpt lat="45.32432" lon="4.43382">
        <ele>1011</ele>
        <time>2020-07-01T21:32:39Z</time>
      </trkpt>
      <trkpt lat="45.32454" lon="4.43379">
        <ele>1009</ele>
        <time>2020-07-01T21:32:44Z</time>
      </trkpt>
      <trkpt lat="45.32472" lon="4.4339">
        <ele>1008</ele>
        <time>2020-07-01T21:32:49Z</time>
      </trkpt>
      <trkpt lat="45.32499" lon="4.434">
        <ele>1006</ele>
        <time>2020-07-01T21:32:56Z</time>
      </trkpt>
      <trkpt lat="45.32521" lon="4.43397">
        <ele>1005</ele>
        <time>2020-07-01T21:33:01Z</time>
      </trkpt>
      <trkpt lat="45.32557" lon="4.43381">
        <ele>1005</ele>
        <time>2020-07-01T21:33:10Z</time>
      </trkpt>
      <trkpt lat="45.32601" lon="4.43338">
        <ele>1005</ele>
        <time>2020-07-01T21:33:22Z</time>
      </trkpt>
      <trkpt lat="45.32614" lon="4.43297">
        <ele>1004</ele>
        <time>2020-07-01T21:33:29Z</time>
      </trkpt>
      <trkpt lat="45.32617" lon="4.43264">
        <ele>1003</ele>
        <time>2020-07-01T21:33:35Z</time>
      </trkpt>
      <trkpt lat="45.32617" lon="4.43196">
        <ele>1000</ele>
        <time>2020-07-01T21:33:46Z</time>
      </trkpt>
      <trkpt lat="45.32641" lon="4.43072">
        <ele>989</ele>
        <time>2020-07-01T21:34:07Z</time>
      </trkpt>
      <trkpt lat="45.32683" lon="4.42957">
        <ele>979</ele>
        <time>2020-07-01T21:34:28Z</time>
      </trkpt>
      <trkpt lat="45.32723" lon="4.42902">
        <ele>975</ele>
        <time>2020-07-01T21:34:41Z</time>
      </trkpt>
      <trkpt lat="45.32716" lon="4.42863">
        <ele>974</ele>
        <time>2020-07-01T21:34:48Z</time>
      </trkpt>
      <trkpt lat="45.32718" lon="4.42848">
        <ele>973</ele>
        <time>2020-07-01T21:34:51Z</time>
      </trkpt>
      <trkpt lat="45.32727" lon="4.4283">
        <ele>972</ele>
        <time>2020-07-01T21:34:54Z</time>
      </trkpt>
      <trkpt lat="45.32738" lon="4.42816">
        <ele>971</ele>
        <time>2020-07-01T21:34:58Z</time>
      </trkpt>
      <trkpt lat="45.32764" lon="4.428">
        <ele>967</ele>
        <time>2020-07-01T21:35:04Z</time>
      </trkpt>
      <trkpt lat="45.32813" lon="4.4275">
        <ele>957</ele>
        <time>2020-07-01T21:35:18Z</time>
      </trkpt>
      <trkpt lat="45.3286" lon="4.42654">
        <ele>942</ele>
        <time>2020-07-01T21:35:38Z</time>
      </trkpt>
      <trkpt lat="45.32876" lon="4.42631">
        <ele>939</ele>
        <time>2020-07-01T21:35:43Z</time>
      </trkpt>
      <trkpt lat="45.32887" lon="4.42625">
        <ele>938</ele>
        <time>2020-07-01T21:35:46Z</time>
      </trkpt>
      <trkpt lat="45.32894" lon="4.42616">
        <ele>937</ele>
        <time>2020-07-01T21:35:48Z</time>
      </trkpt>
      <trkpt lat="45.32901" lon="4.42598">
        <ele>936</ele>
        <time>2020-07-01T21:35:51Z</time>
      </trkpt>
      <trkpt lat="45.32908" lon="4.42558">
        <ele>933</ele>
        <time>2020-07-01T21:35:58Z</time>
      </trkpt>
      <trkpt lat="45.32907" lon="4.42554">
        <ele>932</ele>
        <time>2020-07-01T21:35:59Z</time>
      </trkpt>
      <trkpt lat="45.32901" lon="4.42551">
        <ele>932</ele>
        <time>2020-07-01T21:36:00Z</time>
      </trkpt>
      <trkpt lat="45.32878" lon="4.42564">
        <ele>933</ele>
        <time>2020-07-01T21:36:06Z</time>
      </trkpt>
      <trkpt lat="45.32864" lon="4.42569">
        <ele>934</ele>
        <time>2020-07-01T21:36:09Z</time>
      </trkpt>
      <trkpt lat="45.32835" lon="4.42571">
        <ele>934</ele>
        <time>2020-07-01T21:36:16Z</time>
      </trkpt>
      <trkpt lat="45.32834" lon="4.42569">
        <ele>933</ele>
        <time>2020-07-01T21:36:16Z</time>
      </trkpt>
      <trkpt lat="45.32835" lon="4.42576">
        <ele>934</ele>
        <time>2020-07-01T21:36:18Z</time>
      </trkpt>
      <trkpt lat="45.32833" lon="4.42572">
        <ele>934</ele>
        <time>2020-07-01T21:36:18Z</time>
      </trkpt>
    </trkseg>
  </trk>
</gpx>